<?xml version="1.0" encoding="UTF-8" standalone="no" ?>
<gpx xmlns="http://www.topografix.com/GPX/1/1" xmlns:xsi="http://www.w3.org/2001/XMLSchema-instance" xsi:schemaLocation="http://www.topografix.com/GPX/1/1 http://www.topografix.com/GPX/1/1/gpx.xsd" version="1.1" creator="VisuGPX - https://www.visugpx.com">
  <metadata>
    <name>Chars-Magny-Chars réel</name>
    <desc><![CDATA[Chars-Magny-Chars réel]]></desc>
  </metadata>
  <trk>
    <name><![CDATA[ACTIVE LOG- 18 MAI 2011 13-22-Chars-Magny-Chars]]></name>
    <trkseg>
      <trkpt lat="49.16496" lon="1.93649">
        <ele>63</ele>
        <time>2011-05-18T11:22:35Z</time>
      </trkpt>
      <trkpt lat="49.16461" lon="1.93648">
        <ele>63</ele>
        <time>2011-05-18T12:00:33Z</time>
      </trkpt>
      <trkpt lat="49.16415" lon="1.93657">
        <ele>63</ele>
        <time>2011-05-18T12:00:49Z</time>
      </trkpt>
      <trkpt lat="49.16369" lon="1.93668">
        <ele>63</ele>
        <time>2011-05-18T12:01:02Z</time>
      </trkpt>
      <trkpt lat="49.16321" lon="1.93674">
        <ele>63</ele>
        <time>2011-05-18T12:01:16Z</time>
      </trkpt>
      <trkpt lat="49.16281" lon="1.93655">
        <ele>63</ele>
        <time>2011-05-18T12:01:30Z</time>
      </trkpt>
      <trkpt lat="49.16268" lon="1.93579">
        <ele>66</ele>
        <time>2011-05-18T12:01:41Z</time>
      </trkpt>
      <trkpt lat="49.16252" lon="1.93536">
        <ele>70</ele>
        <time>2011-05-18T12:02:01Z</time>
      </trkpt>
      <trkpt lat="49.16293" lon="1.935">
        <ele>71</ele>
        <time>2011-05-18T12:02:19Z</time>
      </trkpt>
      <trkpt lat="49.16339" lon="1.93472">
        <ele>73</ele>
        <time>2011-05-18T12:02:36Z</time>
      </trkpt>
      <trkpt lat="49.16383" lon="1.93451">
        <ele>75</ele>
        <time>2011-05-18T12:02:56Z</time>
      </trkpt>
      <trkpt lat="49.1643" lon="1.93434">
        <ele>78</ele>
        <time>2011-05-18T12:03:16Z</time>
      </trkpt>
      <trkpt lat="49.16479" lon="1.93433">
        <ele>79</ele>
        <time>2011-05-18T12:03:35Z</time>
      </trkpt>
      <trkpt lat="49.16527" lon="1.93423">
        <ele>83</ele>
        <time>2011-05-18T12:03:51Z</time>
      </trkpt>
      <trkpt lat="49.16571" lon="1.93401">
        <ele>87</ele>
        <time>2011-05-18T12:04:06Z</time>
      </trkpt>
      <trkpt lat="49.16615" lon="1.93371">
        <ele>91</ele>
        <time>2011-05-18T12:04:21Z</time>
      </trkpt>
      <trkpt lat="49.16655" lon="1.93341">
        <ele>92</ele>
        <time>2011-05-18T12:04:34Z</time>
      </trkpt>
      <trkpt lat="49.16703" lon="1.93322">
        <ele>92</ele>
        <time>2011-05-18T12:04:46Z</time>
      </trkpt>
      <trkpt lat="49.16753" lon="1.93323">
        <ele>89</ele>
        <time>2011-05-18T12:04:58Z</time>
      </trkpt>
      <trkpt lat="49.16806" lon="1.93322">
        <ele>84</ele>
        <time>2011-05-18T12:05:08Z</time>
      </trkpt>
      <trkpt lat="49.16848" lon="1.93288">
        <ele>80</ele>
        <time>2011-05-18T12:05:15Z</time>
      </trkpt>
      <trkpt lat="49.16894" lon="1.93259">
        <ele>75</ele>
        <time>2011-05-18T12:05:21Z</time>
      </trkpt>
      <trkpt lat="49.16947" lon="1.93245">
        <ele>73</ele>
        <time>2011-05-18T12:05:26Z</time>
      </trkpt>
      <trkpt lat="49.16993" lon="1.93249">
        <ele>73</ele>
        <time>2011-05-18T12:05:31Z</time>
      </trkpt>
      <trkpt lat="49.17045" lon="1.93273">
        <ele>72</ele>
        <time>2011-05-18T12:05:37Z</time>
      </trkpt>
      <trkpt lat="49.17093" lon="1.93303">
        <ele>70</ele>
        <time>2011-05-18T12:05:43Z</time>
      </trkpt>
      <trkpt lat="49.1714" lon="1.93314">
        <ele>70</ele>
        <time>2011-05-18T12:05:50Z</time>
      </trkpt>
      <trkpt lat="49.17186" lon="1.93284">
        <ele>72</ele>
        <time>2011-05-18T12:05:59Z</time>
      </trkpt>
      <trkpt lat="49.17235" lon="1.93255">
        <ele>71</ele>
        <time>2011-05-18T12:06:12Z</time>
      </trkpt>
      <trkpt lat="49.17278" lon="1.93235">
        <ele>71</ele>
        <time>2011-05-18T12:06:25Z</time>
      </trkpt>
      <trkpt lat="49.17324" lon="1.93198">
        <ele>74</ele>
        <time>2011-05-18T12:06:37Z</time>
      </trkpt>
      <trkpt lat="49.17373" lon="1.93191">
        <ele>74</ele>
        <time>2011-05-18T12:06:49Z</time>
      </trkpt>
      <trkpt lat="49.17426" lon="1.93183">
        <ele>72</ele>
        <time>2011-05-18T12:07:03Z</time>
      </trkpt>
      <trkpt lat="49.17471" lon="1.93169">
        <ele>69</ele>
        <time>2011-05-18T12:07:16Z</time>
      </trkpt>
      <trkpt lat="49.17514" lon="1.93113">
        <ele>68</ele>
        <time>2011-05-18T12:07:28Z</time>
      </trkpt>
      <trkpt lat="49.17561" lon="1.93101">
        <ele>66</ele>
        <time>2011-05-18T12:07:41Z</time>
      </trkpt>
      <trkpt lat="49.17606" lon="1.93128">
        <ele>66</ele>
        <time>2011-05-18T12:07:53Z</time>
      </trkpt>
      <trkpt lat="49.17661" lon="1.93152">
        <ele>67</ele>
        <time>2011-05-18T12:08:05Z</time>
      </trkpt>
      <trkpt lat="49.17704" lon="1.93146">
        <ele>69</ele>
        <time>2011-05-18T12:08:17Z</time>
      </trkpt>
      <trkpt lat="49.17745" lon="1.93158">
        <ele>71</ele>
        <time>2011-05-18T12:08:35Z</time>
      </trkpt>
      <trkpt lat="49.17785" lon="1.93207">
        <ele>75</ele>
        <time>2011-05-18T12:08:57Z</time>
      </trkpt>
      <trkpt lat="49.17847" lon="1.93244">
        <ele>76</ele>
        <time>2011-05-18T12:09:23Z</time>
      </trkpt>
      <trkpt lat="49.17905" lon="1.93273">
        <ele>80</ele>
        <time>2011-05-18T12:09:50Z</time>
      </trkpt>
      <trkpt lat="49.17958" lon="1.93295">
        <ele>84</ele>
        <time>2011-05-18T12:10:09Z</time>
      </trkpt>
      <trkpt lat="49.1801" lon="1.93302">
        <ele>88</ele>
        <time>2011-05-18T12:10:27Z</time>
      </trkpt>
      <trkpt lat="49.18069" lon="1.93312">
        <ele>91</ele>
        <time>2011-05-18T12:10:46Z</time>
      </trkpt>
      <trkpt lat="49.18126" lon="1.93316">
        <ele>94</ele>
        <time>2011-05-18T12:11:06Z</time>
      </trkpt>
      <trkpt lat="49.18185" lon="1.93326">
        <ele>97</ele>
        <time>2011-05-18T12:11:25Z</time>
      </trkpt>
      <trkpt lat="49.18243" lon="1.9333">
        <ele>100</ele>
        <time>2011-05-18T12:11:45Z</time>
      </trkpt>
      <trkpt lat="49.18301" lon="1.93346">
        <ele>103</ele>
        <time>2011-05-18T12:12:06Z</time>
      </trkpt>
      <trkpt lat="49.18352" lon="1.93359">
        <ele>106</ele>
        <time>2011-05-18T12:12:25Z</time>
      </trkpt>
      <trkpt lat="49.18406" lon="1.93371">
        <ele>109</ele>
        <time>2011-05-18T12:12:46Z</time>
      </trkpt>
      <trkpt lat="49.1846" lon="1.93391">
        <ele>111</ele>
        <time>2011-05-18T12:13:03Z</time>
      </trkpt>
      <trkpt lat="49.18507" lon="1.93416">
        <ele>112</ele>
        <time>2011-05-18T12:13:16Z</time>
      </trkpt>
      <trkpt lat="49.18559" lon="1.93425">
        <ele>113</ele>
        <time>2011-05-18T12:13:30Z</time>
      </trkpt>
      <trkpt lat="49.18616" lon="1.93433">
        <ele>112</ele>
        <time>2011-05-18T12:13:45Z</time>
      </trkpt>
      <trkpt lat="49.18669" lon="1.93439">
        <ele>112</ele>
        <time>2011-05-18T12:13:59Z</time>
      </trkpt>
      <trkpt lat="49.18722" lon="1.93451">
        <ele>112</ele>
        <time>2011-05-18T12:14:12Z</time>
      </trkpt>
      <trkpt lat="49.18777" lon="1.93459">
        <ele>113</ele>
        <time>2011-05-18T12:14:23Z</time>
      </trkpt>
      <trkpt lat="49.18831" lon="1.9347">
        <ele>113</ele>
        <time>2011-05-18T12:14:34Z</time>
      </trkpt>
      <trkpt lat="49.18884" lon="1.93479">
        <ele>113</ele>
        <time>2011-05-18T12:14:46Z</time>
      </trkpt>
      <trkpt lat="49.18932" lon="1.93488">
        <ele>113</ele>
        <time>2011-05-18T12:14:58Z</time>
      </trkpt>
      <trkpt lat="49.18985" lon="1.93494">
        <ele>113</ele>
        <time>2011-05-18T12:15:10Z</time>
      </trkpt>
      <trkpt lat="49.19038" lon="1.93498">
        <ele>113</ele>
        <time>2011-05-18T12:15:21Z</time>
      </trkpt>
      <trkpt lat="49.19092" lon="1.93503">
        <ele>112</ele>
        <time>2011-05-18T12:15:31Z</time>
      </trkpt>
      <trkpt lat="49.19144" lon="1.93507">
        <ele>110</ele>
        <time>2011-05-18T12:15:39Z</time>
      </trkpt>
      <trkpt lat="49.19193" lon="1.93502">
        <ele>108</ele>
        <time>2011-05-18T12:15:46Z</time>
      </trkpt>
      <trkpt lat="49.19243" lon="1.93498">
        <ele>105</ele>
        <time>2011-05-18T12:15:53Z</time>
      </trkpt>
      <trkpt lat="49.19295" lon="1.93508">
        <ele>103</ele>
        <time>2011-05-18T12:16:00Z</time>
      </trkpt>
      <trkpt lat="49.19345" lon="1.93531">
        <ele>100</ele>
        <time>2011-05-18T12:16:07Z</time>
      </trkpt>
      <trkpt lat="49.19384" lon="1.93567">
        <ele>99</ele>
        <time>2011-05-18T12:16:14Z</time>
      </trkpt>
      <trkpt lat="49.19385" lon="1.93492">
        <ele>99</ele>
        <time>2011-05-18T12:16:24Z</time>
      </trkpt>
      <trkpt lat="49.1939" lon="1.93425">
        <ele>99</ele>
        <time>2011-05-18T12:16:35Z</time>
      </trkpt>
      <trkpt lat="49.19401" lon="1.93356">
        <ele>100</ele>
        <time>2011-05-18T12:16:47Z</time>
      </trkpt>
      <trkpt lat="49.1941" lon="1.93287">
        <ele>102</ele>
        <time>2011-05-18T12:17:02Z</time>
      </trkpt>
      <trkpt lat="49.19411" lon="1.93219">
        <ele>104</ele>
        <time>2011-05-18T12:17:18Z</time>
      </trkpt>
      <trkpt lat="49.19491" lon="1.92739">
        <ele>122</ele>
        <time>2011-05-18T12:23:11Z</time>
      </trkpt>
      <trkpt lat="49.19534" lon="1.92744">
        <ele>125</ele>
        <time>2011-05-18T12:25:18Z</time>
      </trkpt>
      <trkpt lat="49.19513" lon="1.92687">
        <ele>125</ele>
        <time>2011-05-18T12:25:33Z</time>
      </trkpt>
      <trkpt lat="49.19488" lon="1.92632">
        <ele>123</ele>
        <time>2011-05-18T12:25:45Z</time>
      </trkpt>
      <trkpt lat="49.1944" lon="1.92597">
        <ele>118</ele>
        <time>2011-05-18T12:25:54Z</time>
      </trkpt>
      <trkpt lat="49.19402" lon="1.92549">
        <ele>114</ele>
        <time>2011-05-18T12:26:00Z</time>
      </trkpt>
      <trkpt lat="49.19354" lon="1.92514">
        <ele>111</ele>
        <time>2011-05-18T12:26:06Z</time>
      </trkpt>
      <trkpt lat="49.19313" lon="1.92481">
        <ele>108</ele>
        <time>2011-05-18T12:26:18Z</time>
      </trkpt>
      <trkpt lat="49.19273" lon="1.92448">
        <ele>106</ele>
        <time>2011-05-18T12:26:28Z</time>
      </trkpt>
      <trkpt lat="49.1923" lon="1.92411">
        <ele>103</ele>
        <time>2011-05-18T12:26:40Z</time>
      </trkpt>
      <trkpt lat="49.19192" lon="1.9237">
        <ele>100</ele>
        <time>2011-05-18T12:26:48Z</time>
      </trkpt>
      <trkpt lat="49.19153" lon="1.92325">
        <ele>98</ele>
        <time>2011-05-18T12:26:56Z</time>
      </trkpt>
      <trkpt lat="49.19111" lon="1.92273">
        <ele>94</ele>
        <time>2011-05-18T12:27:03Z</time>
      </trkpt>
      <trkpt lat="49.19067" lon="1.92231">
        <ele>88</ele>
        <time>2011-05-18T12:27:10Z</time>
      </trkpt>
      <trkpt lat="49.19027" lon="1.92196">
        <ele>81</ele>
        <time>2011-05-18T12:27:17Z</time>
      </trkpt>
      <trkpt lat="49.18982" lon="1.9215">
        <ele>77</ele>
        <time>2011-05-18T12:27:26Z</time>
      </trkpt>
      <trkpt lat="49.18957" lon="1.92092">
        <ele>78</ele>
        <time>2011-05-18T12:27:35Z</time>
      </trkpt>
      <trkpt lat="49.18959" lon="1.92023">
        <ele>82</ele>
        <time>2011-05-18T12:27:44Z</time>
      </trkpt>
      <trkpt lat="49.1896" lon="1.91955">
        <ele>82</ele>
        <time>2011-05-18T12:28:00Z</time>
      </trkpt>
      <trkpt lat="49.18962" lon="1.91981">
        <ele>83</ele>
        <time>2011-05-18T12:28:26Z</time>
      </trkpt>
      <trkpt lat="49.18955" lon="1.92052">
        <ele>80</ele>
        <time>2011-05-18T12:28:36Z</time>
      </trkpt>
      <trkpt lat="49.1897" lon="1.9212">
        <ele>77</ele>
        <time>2011-05-18T12:28:59Z</time>
      </trkpt>
      <trkpt lat="49.19012" lon="1.92178">
        <ele>80</ele>
        <time>2011-05-18T12:29:28Z</time>
      </trkpt>
      <trkpt lat="49.19016" lon="1.92182">
        <ele>80</ele>
        <time>2011-05-18T12:41:28Z</time>
      </trkpt>
      <trkpt lat="49.18976" lon="1.92135">
        <ele>77</ele>
        <time>2011-05-18T12:41:40Z</time>
      </trkpt>
      <trkpt lat="49.18959" lon="1.92055">
        <ele>81</ele>
        <time>2011-05-18T12:41:51Z</time>
      </trkpt>
      <trkpt lat="49.18962" lon="1.91977">
        <ele>83</ele>
        <time>2011-05-18T12:42:05Z</time>
      </trkpt>
      <trkpt lat="49.1896" lon="1.91905">
        <ele>81</ele>
        <time>2011-05-18T12:42:19Z</time>
      </trkpt>
      <trkpt lat="49.18989" lon="1.91848">
        <ele>82</ele>
        <time>2011-05-18T12:42:32Z</time>
      </trkpt>
      <trkpt lat="49.19023" lon="1.9178">
        <ele>78</ele>
        <time>2011-05-18T12:42:44Z</time>
      </trkpt>
      <trkpt lat="49.19056" lon="1.91716">
        <ele>75</ele>
        <time>2011-05-18T12:42:51Z</time>
      </trkpt>
      <trkpt lat="49.19032" lon="1.91647">
        <ele>73</ele>
        <time>2011-05-18T12:42:57Z</time>
      </trkpt>
      <trkpt lat="49.18998" lon="1.91595">
        <ele>73</ele>
        <time>2011-05-18T12:43:04Z</time>
      </trkpt>
      <trkpt lat="49.18965" lon="1.91545">
        <ele>75</ele>
        <time>2011-05-18T12:43:13Z</time>
      </trkpt>
      <trkpt lat="49.18994" lon="1.91496">
        <ele>76</ele>
        <time>2011-05-18T12:43:29Z</time>
      </trkpt>
      <trkpt lat="49.19021" lon="1.91431">
        <ele>74</ele>
        <time>2011-05-18T12:43:52Z</time>
      </trkpt>
      <trkpt lat="49.19029" lon="1.91356">
        <ele>79</ele>
        <time>2011-05-18T12:44:12Z</time>
      </trkpt>
      <trkpt lat="49.19033" lon="1.9127">
        <ele>84</ele>
        <time>2011-05-18T12:44:39Z</time>
      </trkpt>
      <trkpt lat="49.1904" lon="1.91181">
        <ele>88</ele>
        <time>2011-05-18T12:45:05Z</time>
      </trkpt>
      <trkpt lat="49.1906" lon="1.91102">
        <ele>92</ele>
        <time>2011-05-18T12:45:26Z</time>
      </trkpt>
      <trkpt lat="49.19069" lon="1.91026">
        <ele>96</ele>
        <time>2011-05-18T12:45:45Z</time>
      </trkpt>
      <trkpt lat="49.19066" lon="1.90951">
        <ele>98</ele>
        <time>2011-05-18T12:46:02Z</time>
      </trkpt>
      <trkpt lat="49.19058" lon="1.90878">
        <ele>98</ele>
        <time>2011-05-18T12:46:16Z</time>
      </trkpt>
      <trkpt lat="49.1905" lon="1.90805">
        <ele>98</ele>
        <time>2011-05-18T12:46:28Z</time>
      </trkpt>
      <trkpt lat="49.19042" lon="1.90736">
        <ele>97</ele>
        <time>2011-05-18T12:46:38Z</time>
      </trkpt>
      <trkpt lat="49.19033" lon="1.90664">
        <ele>96</ele>
        <time>2011-05-18T12:46:48Z</time>
      </trkpt>
      <trkpt lat="49.19026" lon="1.90593">
        <ele>97</ele>
        <time>2011-05-18T12:46:57Z</time>
      </trkpt>
      <trkpt lat="49.19017" lon="1.9052">
        <ele>98</ele>
        <time>2011-05-18T12:47:08Z</time>
      </trkpt>
      <trkpt lat="49.19013" lon="1.90445">
        <ele>99</ele>
        <time>2011-05-18T12:47:19Z</time>
      </trkpt>
      <trkpt lat="49.19013" lon="1.90373">
        <ele>100</ele>
        <time>2011-05-18T12:47:29Z</time>
      </trkpt>
      <trkpt lat="49.19016" lon="1.90303">
        <ele>100</ele>
        <time>2011-05-18T12:47:38Z</time>
      </trkpt>
      <trkpt lat="49.1902" lon="1.90233">
        <ele>100</ele>
        <time>2011-05-18T12:47:47Z</time>
      </trkpt>
      <trkpt lat="49.19024" lon="1.90165">
        <ele>100</ele>
        <time>2011-05-18T12:47:56Z</time>
      </trkpt>
      <trkpt lat="49.19029" lon="1.9009">
        <ele>100</ele>
        <time>2011-05-18T12:48:05Z</time>
      </trkpt>
      <trkpt lat="49.19034" lon="1.90015">
        <ele>101</ele>
        <time>2011-05-18T12:48:14Z</time>
      </trkpt>
      <trkpt lat="49.19039" lon="1.89944">
        <ele>101</ele>
        <time>2011-05-18T12:48:23Z</time>
      </trkpt>
      <trkpt lat="49.19045" lon="1.89873">
        <ele>102</ele>
        <time>2011-05-18T12:48:32Z</time>
      </trkpt>
      <trkpt lat="49.1905" lon="1.89803">
        <ele>103</ele>
        <time>2011-05-18T12:48:41Z</time>
      </trkpt>
      <trkpt lat="49.19055" lon="1.89733">
        <ele>104</ele>
        <time>2011-05-18T12:48:51Z</time>
      </trkpt>
      <trkpt lat="49.1906" lon="1.89659">
        <ele>105</ele>
        <time>2011-05-18T12:49:02Z</time>
      </trkpt>
      <trkpt lat="49.19066" lon="1.89587">
        <ele>105</ele>
        <time>2011-05-18T12:49:12Z</time>
      </trkpt>
      <trkpt lat="49.19067" lon="1.89516">
        <ele>106</ele>
        <time>2011-05-18T12:49:23Z</time>
      </trkpt>
      <trkpt lat="49.19058" lon="1.89448">
        <ele>107</ele>
        <time>2011-05-18T12:49:34Z</time>
      </trkpt>
      <trkpt lat="49.19046" lon="1.89381">
        <ele>107</ele>
        <time>2011-05-18T12:49:45Z</time>
      </trkpt>
      <trkpt lat="49.19038" lon="1.8931">
        <ele>107</ele>
        <time>2011-05-18T12:49:56Z</time>
      </trkpt>
      <trkpt lat="49.19031" lon="1.89243">
        <ele>107</ele>
        <time>2011-05-18T12:50:06Z</time>
      </trkpt>
      <trkpt lat="49.19026" lon="1.89171">
        <ele>107</ele>
        <time>2011-05-18T12:50:16Z</time>
      </trkpt>
      <trkpt lat="49.19021" lon="1.891">
        <ele>107</ele>
        <time>2011-05-18T12:50:26Z</time>
      </trkpt>
      <trkpt lat="49.19015" lon="1.89024">
        <ele>107</ele>
        <time>2011-05-18T12:50:37Z</time>
      </trkpt>
      <trkpt lat="49.19009" lon="1.88955">
        <ele>107</ele>
        <time>2011-05-18T12:50:46Z</time>
      </trkpt>
      <trkpt lat="49.18998" lon="1.88881">
        <ele>107</ele>
        <time>2011-05-18T12:50:56Z</time>
      </trkpt>
      <trkpt lat="49.18978" lon="1.88812">
        <ele>107</ele>
        <time>2011-05-18T12:51:06Z</time>
      </trkpt>
      <trkpt lat="49.18968" lon="1.88747">
        <ele>107</ele>
        <time>2011-05-18T12:51:15Z</time>
      </trkpt>
      <trkpt lat="49.18961" lon="1.88676">
        <ele>107</ele>
        <time>2011-05-18T12:51:24Z</time>
      </trkpt>
      <trkpt lat="49.18913" lon="1.88658">
        <ele>107</ele>
        <time>2011-05-18T12:51:33Z</time>
      </trkpt>
      <trkpt lat="49.18885" lon="1.88603">
        <ele>108</ele>
        <time>2011-05-18T12:51:42Z</time>
      </trkpt>
      <trkpt lat="49.18849" lon="1.88562">
        <ele>108</ele>
        <time>2011-05-18T12:51:52Z</time>
      </trkpt>
      <trkpt lat="49.18806" lon="1.88533">
        <ele>108</ele>
        <time>2011-05-18T12:52:05Z</time>
      </trkpt>
      <trkpt lat="49.18824" lon="1.88467">
        <ele>108</ele>
        <time>2011-05-18T12:52:17Z</time>
      </trkpt>
      <trkpt lat="49.18855" lon="1.8841">
        <ele>108</ele>
        <time>2011-05-18T12:52:26Z</time>
      </trkpt>
      <trkpt lat="49.18884" lon="1.88356">
        <ele>108</ele>
        <time>2011-05-18T12:52:37Z</time>
      </trkpt>
      <trkpt lat="49.18919" lon="1.883">
        <ele>108</ele>
        <time>2011-05-18T12:52:48Z</time>
      </trkpt>
      <trkpt lat="49.18954" lon="1.8825">
        <ele>108</ele>
        <time>2011-05-18T12:52:57Z</time>
      </trkpt>
      <trkpt lat="49.18985" lon="1.882">
        <ele>109</ele>
        <time>2011-05-18T12:53:11Z</time>
      </trkpt>
      <trkpt lat="49.19017" lon="1.88151">
        <ele>109</ele>
        <time>2011-05-18T12:53:22Z</time>
      </trkpt>
      <trkpt lat="49.19046" lon="1.88098">
        <ele>110</ele>
        <time>2011-05-18T12:53:31Z</time>
      </trkpt>
      <trkpt lat="49.19006" lon="1.8805">
        <ele>110</ele>
        <time>2011-05-18T12:53:42Z</time>
      </trkpt>
      <trkpt lat="49.1897" lon="1.88003">
        <ele>110</ele>
        <time>2011-05-18T12:53:53Z</time>
      </trkpt>
      <trkpt lat="49.18934" lon="1.8796">
        <ele>111</ele>
        <time>2011-05-18T12:54:05Z</time>
      </trkpt>
      <trkpt lat="49.18894" lon="1.8792">
        <ele>111</ele>
        <time>2011-05-18T12:54:16Z</time>
      </trkpt>
      <trkpt lat="49.18852" lon="1.87895">
        <ele>112</ele>
        <time>2011-05-18T12:54:27Z</time>
      </trkpt>
      <trkpt lat="49.18804" lon="1.87879">
        <ele>112</ele>
        <time>2011-05-18T12:54:38Z</time>
      </trkpt>
      <trkpt lat="49.18757" lon="1.87865">
        <ele>112</ele>
        <time>2011-05-18T12:54:48Z</time>
      </trkpt>
      <trkpt lat="49.18712" lon="1.87856">
        <ele>112</ele>
        <time>2011-05-18T12:54:58Z</time>
      </trkpt>
      <trkpt lat="49.18697" lon="1.8779">
        <ele>112</ele>
        <time>2011-05-18T12:55:08Z</time>
      </trkpt>
      <trkpt lat="49.18687" lon="1.8772">
        <ele>112</ele>
        <time>2011-05-18T12:55:19Z</time>
      </trkpt>
      <trkpt lat="49.18677" lon="1.87651">
        <ele>113</ele>
        <time>2011-05-18T12:55:32Z</time>
      </trkpt>
      <trkpt lat="49.18669" lon="1.87581">
        <ele>114</ele>
        <time>2011-05-18T12:55:45Z</time>
      </trkpt>
      <trkpt lat="49.18665" lon="1.87511">
        <ele>115</ele>
        <time>2011-05-18T12:55:57Z</time>
      </trkpt>
      <trkpt lat="49.18662" lon="1.87438">
        <ele>116</ele>
        <time>2011-05-18T12:56:10Z</time>
      </trkpt>
      <trkpt lat="49.18657" lon="1.87366">
        <ele>116</ele>
        <time>2011-05-18T12:56:21Z</time>
      </trkpt>
      <trkpt lat="49.18651" lon="1.87296">
        <ele>116</ele>
        <time>2011-05-18T12:56:32Z</time>
      </trkpt>
      <trkpt lat="49.1864" lon="1.87225">
        <ele>117</ele>
        <time>2011-05-18T12:56:44Z</time>
      </trkpt>
      <trkpt lat="49.18628" lon="1.87155">
        <ele>119</ele>
        <time>2011-05-18T12:56:56Z</time>
      </trkpt>
      <trkpt lat="49.18618" lon="1.87088">
        <ele>119</ele>
        <time>2011-05-18T12:57:09Z</time>
      </trkpt>
      <trkpt lat="49.1861" lon="1.87015">
        <ele>120</ele>
        <time>2011-05-18T12:57:20Z</time>
      </trkpt>
      <trkpt lat="49.18602" lon="1.86946">
        <ele>120</ele>
        <time>2011-05-18T12:57:33Z</time>
      </trkpt>
      <trkpt lat="49.18594" lon="1.86876">
        <ele>121</ele>
        <time>2011-05-18T12:57:46Z</time>
      </trkpt>
      <trkpt lat="49.18585" lon="1.86805">
        <ele>122</ele>
        <time>2011-05-18T12:58:00Z</time>
      </trkpt>
      <trkpt lat="49.18573" lon="1.86739">
        <ele>122</ele>
        <time>2011-05-18T12:58:14Z</time>
      </trkpt>
      <trkpt lat="49.18559" lon="1.86671">
        <ele>123</ele>
        <time>2011-05-18T12:58:29Z</time>
      </trkpt>
      <trkpt lat="49.18545" lon="1.86602">
        <ele>124</ele>
        <time>2011-05-18T12:58:43Z</time>
      </trkpt>
      <trkpt lat="49.18531" lon="1.86531">
        <ele>125</ele>
        <time>2011-05-18T12:58:57Z</time>
      </trkpt>
      <trkpt lat="49.1852" lon="1.8646">
        <ele>126</ele>
        <time>2011-05-18T12:59:09Z</time>
      </trkpt>
      <trkpt lat="49.18522" lon="1.86388">
        <ele>126</ele>
        <time>2011-05-18T12:59:21Z</time>
      </trkpt>
      <trkpt lat="49.18483" lon="1.86357">
        <ele>127</ele>
        <time>2011-05-18T12:59:33Z</time>
      </trkpt>
      <trkpt lat="49.18441" lon="1.86337">
        <ele>127</ele>
        <time>2011-05-18T12:59:45Z</time>
      </trkpt>
      <trkpt lat="49.184" lon="1.86303">
        <ele>127</ele>
        <time>2011-05-18T12:59:56Z</time>
      </trkpt>
      <trkpt lat="49.18363" lon="1.8626">
        <ele>128</ele>
        <time>2011-05-18T13:00:07Z</time>
      </trkpt>
      <trkpt lat="49.18326" lon="1.86215">
        <ele>129</ele>
        <time>2011-05-18T13:00:19Z</time>
      </trkpt>
      <trkpt lat="49.18289" lon="1.86172">
        <ele>131</ele>
        <time>2011-05-18T13:00:30Z</time>
      </trkpt>
      <trkpt lat="49.18252" lon="1.86127">
        <ele>132</ele>
        <time>2011-05-18T13:00:44Z</time>
      </trkpt>
      <trkpt lat="49.18215" lon="1.86081">
        <ele>134</ele>
        <time>2011-05-18T13:00:58Z</time>
      </trkpt>
      <trkpt lat="49.1818" lon="1.86037">
        <ele>134</ele>
        <time>2011-05-18T13:01:12Z</time>
      </trkpt>
      <trkpt lat="49.18147" lon="1.85991">
        <ele>134</ele>
        <time>2011-05-18T13:01:26Z</time>
      </trkpt>
      <trkpt lat="49.18109" lon="1.85943">
        <ele>135</ele>
        <time>2011-05-18T13:01:38Z</time>
      </trkpt>
      <trkpt lat="49.18077" lon="1.85894">
        <ele>135</ele>
        <time>2011-05-18T13:01:51Z</time>
      </trkpt>
      <trkpt lat="49.18078" lon="1.85829">
        <ele>135</ele>
        <time>2011-05-18T13:02:08Z</time>
      </trkpt>
      <trkpt lat="49.18124" lon="1.85798">
        <ele>137</ele>
        <time>2011-05-18T13:02:25Z</time>
      </trkpt>
      <trkpt lat="49.18178" lon="1.85774">
        <ele>139</ele>
        <time>2011-05-18T13:02:39Z</time>
      </trkpt>
      <trkpt lat="49.18222" lon="1.85757">
        <ele>140</ele>
        <time>2011-05-18T13:02:52Z</time>
      </trkpt>
      <trkpt lat="49.18266" lon="1.85738">
        <ele>141</ele>
        <time>2011-05-18T13:03:06Z</time>
      </trkpt>
      <trkpt lat="49.18311" lon="1.85718">
        <ele>142</ele>
        <time>2011-05-18T13:03:20Z</time>
      </trkpt>
      <trkpt lat="49.18355" lon="1.85706">
        <ele>142</ele>
        <time>2011-05-18T13:03:32Z</time>
      </trkpt>
      <trkpt lat="49.18406" lon="1.85708">
        <ele>142</ele>
        <time>2011-05-18T13:03:42Z</time>
      </trkpt>
      <trkpt lat="49.18449" lon="1.85676">
        <ele>141</ele>
        <time>2011-05-18T13:03:49Z</time>
      </trkpt>
      <trkpt lat="49.18478" lon="1.85621">
        <ele>140</ele>
        <time>2011-05-18T13:03:55Z</time>
      </trkpt>
      <trkpt lat="49.18513" lon="1.8557">
        <ele>141</ele>
        <time>2011-05-18T13:04:03Z</time>
      </trkpt>
      <trkpt lat="49.18546" lon="1.85521">
        <ele>141</ele>
        <time>2011-05-18T13:04:15Z</time>
      </trkpt>
      <trkpt lat="49.18579" lon="1.85476">
        <ele>141</ele>
        <time>2011-05-18T13:04:26Z</time>
      </trkpt>
      <trkpt lat="49.18619" lon="1.85444">
        <ele>139</ele>
        <time>2011-05-18T13:04:35Z</time>
      </trkpt>
      <trkpt lat="49.18669" lon="1.85419">
        <ele>137</ele>
        <time>2011-05-18T13:04:43Z</time>
      </trkpt>
      <trkpt lat="49.18682" lon="1.85352">
        <ele>136</ele>
        <time>2011-05-18T13:04:54Z</time>
      </trkpt>
      <trkpt lat="49.18725" lon="1.85319">
        <ele>137</ele>
        <time>2011-05-18T13:05:08Z</time>
      </trkpt>
      <trkpt lat="49.18766" lon="1.85286">
        <ele>138</ele>
        <time>2011-05-18T13:05:20Z</time>
      </trkpt>
      <trkpt lat="49.18808" lon="1.85251">
        <ele>140</ele>
        <time>2011-05-18T13:05:33Z</time>
      </trkpt>
      <trkpt lat="49.18848" lon="1.85218">
        <ele>141</ele>
        <time>2011-05-18T13:05:45Z</time>
      </trkpt>
      <trkpt lat="49.18889" lon="1.85182">
        <ele>143</ele>
        <time>2011-05-18T13:05:58Z</time>
      </trkpt>
      <trkpt lat="49.18926" lon="1.85143">
        <ele>144</ele>
        <time>2011-05-18T13:06:12Z</time>
      </trkpt>
      <trkpt lat="49.18965" lon="1.85105">
        <ele>146</ele>
        <time>2011-05-18T13:06:27Z</time>
      </trkpt>
      <trkpt lat="49.19004" lon="1.85067">
        <ele>148</ele>
        <time>2011-05-18T13:06:44Z</time>
      </trkpt>
      <trkpt lat="49.19043" lon="1.85028">
        <ele>151</ele>
        <time>2011-05-18T13:07:01Z</time>
      </trkpt>
      <trkpt lat="49.19081" lon="1.84989">
        <ele>154</ele>
        <time>2011-05-18T13:07:21Z</time>
      </trkpt>
      <trkpt lat="49.1911" lon="1.84938">
        <ele>157</ele>
        <time>2011-05-18T13:07:40Z</time>
      </trkpt>
      <trkpt lat="49.19127" lon="1.84875">
        <ele>160</ele>
        <time>2011-05-18T13:07:59Z</time>
      </trkpt>
      <trkpt lat="49.19141" lon="1.84808">
        <ele>162</ele>
        <time>2011-05-18T13:08:17Z</time>
      </trkpt>
      <trkpt lat="49.19154" lon="1.84739">
        <ele>165</ele>
        <time>2011-05-18T13:08:35Z</time>
      </trkpt>
      <trkpt lat="49.19169" lon="1.84672">
        <ele>169</ele>
        <time>2011-05-18T13:08:53Z</time>
      </trkpt>
      <trkpt lat="49.19184" lon="1.84609">
        <ele>172</ele>
        <time>2011-05-18T13:09:10Z</time>
      </trkpt>
      <trkpt lat="49.19196" lon="1.8454">
        <ele>175</ele>
        <time>2011-05-18T13:09:29Z</time>
      </trkpt>
      <trkpt lat="49.19207" lon="1.84473">
        <ele>178</ele>
        <time>2011-05-18T13:09:48Z</time>
      </trkpt>
      <trkpt lat="49.1922" lon="1.84407">
        <ele>180</ele>
        <time>2011-05-18T13:10:08Z</time>
      </trkpt>
      <trkpt lat="49.19202" lon="1.84359">
        <ele>184</ele>
        <time>2011-05-18T13:10:28Z</time>
      </trkpt>
      <trkpt lat="49.19169" lon="1.84317">
        <ele>185</ele>
        <time>2011-05-18T13:10:43Z</time>
      </trkpt>
      <trkpt lat="49.19145" lon="1.84251">
        <ele>186</ele>
        <time>2011-05-18T13:10:56Z</time>
      </trkpt>
      <trkpt lat="49.19117" lon="1.84177">
        <ele>184</ele>
        <time>2011-05-18T13:11:07Z</time>
      </trkpt>
      <trkpt lat="49.19084" lon="1.84132">
        <ele>179</ele>
        <time>2011-05-18T13:11:15Z</time>
      </trkpt>
      <trkpt lat="49.19082" lon="1.84057">
        <ele>177</ele>
        <time>2011-05-18T13:11:23Z</time>
      </trkpt>
      <trkpt lat="49.19044" lon="1.84025">
        <ele>170</ele>
        <time>2011-05-18T13:11:33Z</time>
      </trkpt>
      <trkpt lat="49.19016" lon="1.8396">
        <ele>168</ele>
        <time>2011-05-18T13:11:41Z</time>
      </trkpt>
      <trkpt lat="49.18974" lon="1.83922">
        <ele>166</ele>
        <time>2011-05-18T13:11:57Z</time>
      </trkpt>
      <trkpt lat="49.1895" lon="1.83852">
        <ele>164</ele>
        <time>2011-05-18T13:12:06Z</time>
      </trkpt>
      <trkpt lat="49.18939" lon="1.8377">
        <ele>164</ele>
        <time>2011-05-18T13:12:23Z</time>
      </trkpt>
      <trkpt lat="49.18915" lon="1.83705">
        <ele>162</ele>
        <time>2011-05-18T13:12:36Z</time>
      </trkpt>
      <trkpt lat="49.18903" lon="1.83629">
        <ele>162</ele>
        <time>2011-05-18T13:12:50Z</time>
      </trkpt>
      <trkpt lat="49.18905" lon="1.83547">
        <ele>163</ele>
        <time>2011-05-18T13:13:06Z</time>
      </trkpt>
      <trkpt lat="49.18903" lon="1.83468">
        <ele>164</ele>
        <time>2011-05-18T13:13:22Z</time>
      </trkpt>
      <trkpt lat="49.18875" lon="1.83412">
        <ele>161</ele>
        <time>2011-05-18T13:13:32Z</time>
      </trkpt>
      <trkpt lat="49.1886" lon="1.83334">
        <ele>157</ele>
        <time>2011-05-18T13:13:41Z</time>
      </trkpt>
      <trkpt lat="49.18833" lon="1.83278">
        <ele>153</ele>
        <time>2011-05-18T13:13:50Z</time>
      </trkpt>
      <trkpt lat="49.18798" lon="1.83237">
        <ele>148</ele>
        <time>2011-05-18T13:13:55Z</time>
      </trkpt>
      <trkpt lat="49.1876" lon="1.83189">
        <ele>144</ele>
        <time>2011-05-18T13:14:02Z</time>
      </trkpt>
      <trkpt lat="49.18732" lon="1.83218">
        <ele>143</ele>
        <time>2011-05-18T13:14:43Z</time>
      </trkpt>
      <trkpt lat="49.18684" lon="1.83192">
        <ele>138</ele>
        <time>2011-05-18T13:15:10Z</time>
      </trkpt>
      <trkpt lat="49.18638" lon="1.8319">
        <ele>134</ele>
        <time>2011-05-18T13:15:27Z</time>
      </trkpt>
      <trkpt lat="49.18619" lon="1.83135">
        <ele>132</ele>
        <time>2011-05-18T13:15:37Z</time>
      </trkpt>
      <trkpt lat="49.18622" lon="1.83067">
        <ele>132</ele>
        <time>2011-05-18T13:15:49Z</time>
      </trkpt>
      <trkpt lat="49.18645" lon="1.83006">
        <ele>132</ele>
        <time>2011-05-18T13:15:59Z</time>
      </trkpt>
      <trkpt lat="49.18676" lon="1.82958">
        <ele>133</ele>
        <time>2011-05-18T13:16:09Z</time>
      </trkpt>
      <trkpt lat="49.18689" lon="1.82888">
        <ele>132</ele>
        <time>2011-05-18T13:16:20Z</time>
      </trkpt>
      <trkpt lat="49.18717" lon="1.82835">
        <ele>133</ele>
        <time>2011-05-18T13:16:37Z</time>
      </trkpt>
      <trkpt lat="49.18731" lon="1.82789">
        <ele>133</ele>
        <time>2011-05-18T13:18:48Z</time>
      </trkpt>
      <trkpt lat="49.18753" lon="1.82729">
        <ele>132</ele>
        <time>2011-05-18T13:19:10Z</time>
      </trkpt>
      <trkpt lat="49.18778" lon="1.82666">
        <ele>133</ele>
        <time>2011-05-18T13:19:26Z</time>
      </trkpt>
      <trkpt lat="49.18804" lon="1.82606">
        <ele>133</ele>
        <time>2011-05-18T13:19:41Z</time>
      </trkpt>
      <trkpt lat="49.18827" lon="1.82547">
        <ele>134</ele>
        <time>2011-05-18T13:19:56Z</time>
      </trkpt>
      <trkpt lat="49.18831" lon="1.82474">
        <ele>135</ele>
        <time>2011-05-18T13:20:13Z</time>
      </trkpt>
      <trkpt lat="49.18835" lon="1.82404">
        <ele>137</ele>
        <time>2011-05-18T13:20:29Z</time>
      </trkpt>
      <trkpt lat="49.18835" lon="1.82329">
        <ele>138</ele>
        <time>2011-05-18T13:20:50Z</time>
      </trkpt>
      <trkpt lat="49.18848" lon="1.82261">
        <ele>140</ele>
        <time>2011-05-18T13:21:12Z</time>
      </trkpt>
      <trkpt lat="49.18875" lon="1.82204">
        <ele>143</ele>
        <time>2011-05-18T13:21:32Z</time>
      </trkpt>
      <trkpt lat="49.18902" lon="1.82143">
        <ele>145</ele>
        <time>2011-05-18T13:21:50Z</time>
      </trkpt>
      <trkpt lat="49.1893" lon="1.82084">
        <ele>147</ele>
        <time>2011-05-18T13:22:09Z</time>
      </trkpt>
      <trkpt lat="49.1896" lon="1.82029">
        <ele>148</ele>
        <time>2011-05-18T13:22:26Z</time>
      </trkpt>
      <trkpt lat="49.18991" lon="1.81975">
        <ele>150</ele>
        <time>2011-05-18T13:22:42Z</time>
      </trkpt>
      <trkpt lat="49.19013" lon="1.81914">
        <ele>152</ele>
        <time>2011-05-18T13:22:59Z</time>
      </trkpt>
      <trkpt lat="49.19031" lon="1.81849">
        <ele>153</ele>
        <time>2011-05-18T13:23:16Z</time>
      </trkpt>
      <trkpt lat="49.19051" lon="1.81786">
        <ele>154</ele>
        <time>2011-05-18T13:23:32Z</time>
      </trkpt>
      <trkpt lat="49.19073" lon="1.81724">
        <ele>155</ele>
        <time>2011-05-18T13:23:47Z</time>
      </trkpt>
      <trkpt lat="49.19097" lon="1.81662">
        <ele>157</ele>
        <time>2011-05-18T13:24:01Z</time>
      </trkpt>
      <trkpt lat="49.19119" lon="1.816">
        <ele>158</ele>
        <time>2011-05-18T13:24:17Z</time>
      </trkpt>
      <trkpt lat="49.19132" lon="1.81536">
        <ele>158</ele>
        <time>2011-05-18T13:24:30Z</time>
      </trkpt>
      <trkpt lat="49.19136" lon="1.81464">
        <ele>158</ele>
        <time>2011-05-18T13:24:43Z</time>
      </trkpt>
      <trkpt lat="49.19166" lon="1.81406">
        <ele>158</ele>
        <time>2011-05-18T13:24:57Z</time>
      </trkpt>
      <trkpt lat="49.192" lon="1.81365">
        <ele>156</ele>
        <time>2011-05-18T13:25:07Z</time>
      </trkpt>
      <trkpt lat="49.19245" lon="1.81307">
        <ele>152</ele>
        <time>2011-05-18T13:25:15Z</time>
      </trkpt>
      <trkpt lat="49.19285" lon="1.81265">
        <ele>151</ele>
        <time>2011-05-18T13:25:25Z</time>
      </trkpt>
      <trkpt lat="49.19314" lon="1.81215">
        <ele>153</ele>
        <time>2011-05-18T13:25:41Z</time>
      </trkpt>
      <trkpt lat="49.19348" lon="1.81167">
        <ele>154</ele>
        <time>2011-05-18T13:25:56Z</time>
      </trkpt>
      <trkpt lat="49.19387" lon="1.81124">
        <ele>154</ele>
        <time>2011-05-18T13:26:06Z</time>
      </trkpt>
      <trkpt lat="49.19422" lon="1.81076">
        <ele>150</ele>
        <time>2011-05-18T13:26:13Z</time>
      </trkpt>
      <trkpt lat="49.19459" lon="1.81026">
        <ele>150</ele>
        <time>2011-05-18T13:26:21Z</time>
      </trkpt>
      <trkpt lat="49.19491" lon="1.80982">
        <ele>152</ele>
        <time>2011-05-18T13:26:32Z</time>
      </trkpt>
      <trkpt lat="49.19526" lon="1.80934">
        <ele>152</ele>
        <time>2011-05-18T13:26:44Z</time>
      </trkpt>
      <trkpt lat="49.19561" lon="1.80885">
        <ele>154</ele>
        <time>2011-05-18T13:26:55Z</time>
      </trkpt>
      <trkpt lat="49.19602" lon="1.80843">
        <ele>155</ele>
        <time>2011-05-18T13:27:05Z</time>
      </trkpt>
      <trkpt lat="49.19646" lon="1.80817">
        <ele>154</ele>
        <time>2011-05-18T13:27:13Z</time>
      </trkpt>
      <trkpt lat="49.19687" lon="1.80776">
        <ele>152</ele>
        <time>2011-05-18T13:27:21Z</time>
      </trkpt>
      <trkpt lat="49.19709" lon="1.80711">
        <ele>150</ele>
        <time>2011-05-18T13:27:30Z</time>
      </trkpt>
      <trkpt lat="49.1973" lon="1.80646">
        <ele>147</ele>
        <time>2011-05-18T13:27:41Z</time>
      </trkpt>
      <trkpt lat="49.19748" lon="1.80576">
        <ele>145</ele>
        <time>2011-05-18T13:27:51Z</time>
      </trkpt>
      <trkpt lat="49.19769" lon="1.80511">
        <ele>141</ele>
        <time>2011-05-18T13:28:00Z</time>
      </trkpt>
      <trkpt lat="49.19792" lon="1.80453">
        <ele>139</ele>
        <time>2011-05-18T13:28:13Z</time>
      </trkpt>
      <trkpt lat="49.19779" lon="1.80386">
        <ele>138</ele>
        <time>2011-05-18T13:28:33Z</time>
      </trkpt>
      <trkpt lat="49.19763" lon="1.80315">
        <ele>137</ele>
        <time>2011-05-18T13:28:43Z</time>
      </trkpt>
      <trkpt lat="49.19731" lon="1.80265">
        <ele>135</ele>
        <time>2011-05-18T13:28:52Z</time>
      </trkpt>
      <trkpt lat="49.197" lon="1.80207">
        <ele>132</ele>
        <time>2011-05-18T13:29:02Z</time>
      </trkpt>
      <trkpt lat="49.19661" lon="1.80154">
        <ele>130</ele>
        <time>2011-05-18T13:29:10Z</time>
      </trkpt>
      <trkpt lat="49.19623" lon="1.80115">
        <ele>129</ele>
        <time>2011-05-18T13:29:17Z</time>
      </trkpt>
      <trkpt lat="49.19586" lon="1.8006">
        <ele>128</ele>
        <time>2011-05-18T13:29:25Z</time>
      </trkpt>
      <trkpt lat="49.1956" lon="1.80002">
        <ele>127</ele>
        <time>2011-05-18T13:29:33Z</time>
      </trkpt>
      <trkpt lat="49.19526" lon="1.79957">
        <ele>126</ele>
        <time>2011-05-18T13:29:42Z</time>
      </trkpt>
      <trkpt lat="49.19492" lon="1.79911">
        <ele>125</ele>
        <time>2011-05-18T13:29:55Z</time>
      </trkpt>
      <trkpt lat="49.19458" lon="1.79864">
        <ele>127</ele>
        <time>2011-05-18T13:30:08Z</time>
      </trkpt>
      <trkpt lat="49.1942" lon="1.79817">
        <ele>130</ele>
        <time>2011-05-18T13:30:21Z</time>
      </trkpt>
      <trkpt lat="49.19382" lon="1.79774">
        <ele>132</ele>
        <time>2011-05-18T13:30:36Z</time>
      </trkpt>
      <trkpt lat="49.19346" lon="1.79729">
        <ele>132</ele>
        <time>2011-05-18T13:30:51Z</time>
      </trkpt>
      <trkpt lat="49.19308" lon="1.79695">
        <ele>132</ele>
        <time>2011-05-18T13:31:07Z</time>
      </trkpt>
      <trkpt lat="49.19267" lon="1.79674">
        <ele>131</ele>
        <time>2011-05-18T13:31:23Z</time>
      </trkpt>
      <trkpt lat="49.19221" lon="1.7966">
        <ele>130</ele>
        <time>2011-05-18T13:31:35Z</time>
      </trkpt>
      <trkpt lat="49.19176" lon="1.79649">
        <ele>129</ele>
        <time>2011-05-18T13:31:47Z</time>
      </trkpt>
      <trkpt lat="49.19131" lon="1.79633">
        <ele>129</ele>
        <time>2011-05-18T13:31:55Z</time>
      </trkpt>
      <trkpt lat="49.19084" lon="1.79617">
        <ele>128</ele>
        <time>2011-05-18T13:32:03Z</time>
      </trkpt>
      <trkpt lat="49.19037" lon="1.796">
        <ele>128</ele>
        <time>2011-05-18T13:32:12Z</time>
      </trkpt>
      <trkpt lat="49.18993" lon="1.79586">
        <ele>128</ele>
        <time>2011-05-18T13:32:21Z</time>
      </trkpt>
      <trkpt lat="49.18945" lon="1.7957">
        <ele>128</ele>
        <time>2011-05-18T13:32:30Z</time>
      </trkpt>
      <trkpt lat="49.18897" lon="1.79559">
        <ele>128</ele>
        <time>2011-05-18T13:32:38Z</time>
      </trkpt>
      <trkpt lat="49.18851" lon="1.79557">
        <ele>128</ele>
        <time>2011-05-18T13:32:47Z</time>
      </trkpt>
      <trkpt lat="49.18806" lon="1.79544">
        <ele>128</ele>
        <time>2011-05-18T13:32:57Z</time>
      </trkpt>
      <trkpt lat="49.1876" lon="1.7953">
        <ele>128</ele>
        <time>2011-05-18T13:33:08Z</time>
      </trkpt>
      <trkpt lat="49.18715" lon="1.79516">
        <ele>129</ele>
        <time>2011-05-18T13:33:18Z</time>
      </trkpt>
      <trkpt lat="49.18668" lon="1.79514">
        <ele>129</ele>
        <time>2011-05-18T13:33:27Z</time>
      </trkpt>
      <trkpt lat="49.18619" lon="1.79516">
        <ele>130</ele>
        <time>2011-05-18T13:33:37Z</time>
      </trkpt>
      <trkpt lat="49.18573" lon="1.79515">
        <ele>130</ele>
        <time>2011-05-18T13:33:47Z</time>
      </trkpt>
      <trkpt lat="49.18526" lon="1.79512">
        <ele>131</ele>
        <time>2011-05-18T13:33:57Z</time>
      </trkpt>
      <trkpt lat="49.18479" lon="1.79499">
        <ele>132</ele>
        <time>2011-05-18T13:34:08Z</time>
      </trkpt>
      <trkpt lat="49.18433" lon="1.79473">
        <ele>133</ele>
        <time>2011-05-18T13:34:18Z</time>
      </trkpt>
      <trkpt lat="49.18386" lon="1.79451">
        <ele>134</ele>
        <time>2011-05-18T13:34:30Z</time>
      </trkpt>
      <trkpt lat="49.18343" lon="1.7943">
        <ele>135</ele>
        <time>2011-05-18T13:34:43Z</time>
      </trkpt>
      <trkpt lat="49.18299" lon="1.79409">
        <ele>136</ele>
        <time>2011-05-18T13:34:56Z</time>
      </trkpt>
      <trkpt lat="49.18254" lon="1.79388">
        <ele>136</ele>
        <time>2011-05-18T13:35:09Z</time>
      </trkpt>
      <trkpt lat="49.18209" lon="1.79377">
        <ele>136</ele>
        <time>2011-05-18T13:35:21Z</time>
      </trkpt>
      <trkpt lat="49.18163" lon="1.79373">
        <ele>136</ele>
        <time>2011-05-18T13:35:33Z</time>
      </trkpt>
      <trkpt lat="49.18118" lon="1.79375">
        <ele>136</ele>
        <time>2011-05-18T13:35:44Z</time>
      </trkpt>
      <trkpt lat="49.18069" lon="1.79376">
        <ele>136</ele>
        <time>2011-05-18T13:35:55Z</time>
      </trkpt>
      <trkpt lat="49.18024" lon="1.79361">
        <ele>136</ele>
        <time>2011-05-18T13:36:04Z</time>
      </trkpt>
      <trkpt lat="49.1798" lon="1.79329">
        <ele>135</ele>
        <time>2011-05-18T13:36:13Z</time>
      </trkpt>
      <trkpt lat="49.17935" lon="1.79306">
        <ele>134</ele>
        <time>2011-05-18T13:36:22Z</time>
      </trkpt>
      <trkpt lat="49.17885" lon="1.79297">
        <ele>134</ele>
        <time>2011-05-18T13:36:32Z</time>
      </trkpt>
      <trkpt lat="49.17836" lon="1.79287">
        <ele>134</ele>
        <time>2011-05-18T13:36:42Z</time>
      </trkpt>
      <trkpt lat="49.17788" lon="1.79278">
        <ele>134</ele>
        <time>2011-05-18T13:36:52Z</time>
      </trkpt>
      <trkpt lat="49.1774" lon="1.79266">
        <ele>133</ele>
        <time>2011-05-18T13:37:02Z</time>
      </trkpt>
      <trkpt lat="49.17691" lon="1.79256">
        <ele>133</ele>
        <time>2011-05-18T13:37:12Z</time>
      </trkpt>
      <trkpt lat="49.17642" lon="1.79247">
        <ele>133</ele>
        <time>2011-05-18T13:37:22Z</time>
      </trkpt>
      <trkpt lat="49.17594" lon="1.79237">
        <ele>133</ele>
        <time>2011-05-18T13:37:31Z</time>
      </trkpt>
      <trkpt lat="49.17544" lon="1.79227">
        <ele>133</ele>
        <time>2011-05-18T13:37:40Z</time>
      </trkpt>
      <trkpt lat="49.17495" lon="1.79218">
        <ele>133</ele>
        <time>2011-05-18T13:37:49Z</time>
      </trkpt>
      <trkpt lat="49.17447" lon="1.7921">
        <ele>133</ele>
        <time>2011-05-18T13:37:58Z</time>
      </trkpt>
      <trkpt lat="49.17397" lon="1.79201">
        <ele>133</ele>
        <time>2011-05-18T13:38:08Z</time>
      </trkpt>
      <trkpt lat="49.17351" lon="1.79199">
        <ele>134</ele>
        <time>2011-05-18T13:38:18Z</time>
      </trkpt>
      <trkpt lat="49.17304" lon="1.79198">
        <ele>134</ele>
        <time>2011-05-18T13:38:28Z</time>
      </trkpt>
      <trkpt lat="49.17255" lon="1.79204">
        <ele>134</ele>
        <time>2011-05-18T13:38:38Z</time>
      </trkpt>
      <trkpt lat="49.17206" lon="1.79212">
        <ele>135</ele>
        <time>2011-05-18T13:38:48Z</time>
      </trkpt>
      <trkpt lat="49.17156" lon="1.79221">
        <ele>135</ele>
        <time>2011-05-18T13:38:58Z</time>
      </trkpt>
      <trkpt lat="49.17109" lon="1.79226">
        <ele>136</ele>
        <time>2011-05-18T13:39:08Z</time>
      </trkpt>
      <trkpt lat="49.1706" lon="1.79231">
        <ele>136</ele>
        <time>2011-05-18T13:39:18Z</time>
      </trkpt>
      <trkpt lat="49.17012" lon="1.7923">
        <ele>137</ele>
        <time>2011-05-18T13:39:28Z</time>
      </trkpt>
      <trkpt lat="49.16965" lon="1.79218">
        <ele>138</ele>
        <time>2011-05-18T13:39:38Z</time>
      </trkpt>
      <trkpt lat="49.16921" lon="1.79202">
        <ele>138</ele>
        <time>2011-05-18T13:39:48Z</time>
      </trkpt>
      <trkpt lat="49.16874" lon="1.7918">
        <ele>138</ele>
        <time>2011-05-18T13:40:00Z</time>
      </trkpt>
      <trkpt lat="49.16829" lon="1.79156">
        <ele>138</ele>
        <time>2011-05-18T13:40:12Z</time>
      </trkpt>
      <trkpt lat="49.16784" lon="1.79138">
        <ele>137</ele>
        <time>2011-05-18T13:40:24Z</time>
      </trkpt>
      <trkpt lat="49.1674" lon="1.79123">
        <ele>137</ele>
        <time>2011-05-18T13:40:36Z</time>
      </trkpt>
      <trkpt lat="49.16691" lon="1.79105">
        <ele>136</ele>
        <time>2011-05-18T13:40:47Z</time>
      </trkpt>
      <trkpt lat="49.16649" lon="1.79079">
        <ele>135</ele>
        <time>2011-05-18T13:40:57Z</time>
      </trkpt>
      <trkpt lat="49.16607" lon="1.79039">
        <ele>134</ele>
        <time>2011-05-18T13:41:07Z</time>
      </trkpt>
      <trkpt lat="49.16572" lon="1.78994">
        <ele>133</ele>
        <time>2011-05-18T13:41:17Z</time>
      </trkpt>
      <trkpt lat="49.16535" lon="1.78945">
        <ele>131</ele>
        <time>2011-05-18T13:41:26Z</time>
      </trkpt>
      <trkpt lat="49.16489" lon="1.78916">
        <ele>128</ele>
        <time>2011-05-18T13:41:33Z</time>
      </trkpt>
      <trkpt lat="49.1644" lon="1.78934">
        <ele>124</ele>
        <time>2011-05-18T13:41:39Z</time>
      </trkpt>
      <trkpt lat="49.16394" lon="1.78961">
        <ele>119</ele>
        <time>2011-05-18T13:41:46Z</time>
      </trkpt>
      <trkpt lat="49.16348" lon="1.78987">
        <ele>114</ele>
        <time>2011-05-18T13:41:55Z</time>
      </trkpt>
      <trkpt lat="49.16305" lon="1.79004">
        <ele>110</ele>
        <time>2011-05-18T13:42:03Z</time>
      </trkpt>
      <trkpt lat="49.16265" lon="1.79037">
        <ele>108</ele>
        <time>2011-05-18T13:42:15Z</time>
      </trkpt>
      <trkpt lat="49.16236" lon="1.79101">
        <ele>110</ele>
        <time>2011-05-18T13:42:29Z</time>
      </trkpt>
      <trkpt lat="49.16203" lon="1.79159">
        <ele>108</ele>
        <time>2011-05-18T13:42:37Z</time>
      </trkpt>
      <trkpt lat="49.16187" lon="1.79231">
        <ele>108</ele>
        <time>2011-05-18T13:42:48Z</time>
      </trkpt>
      <trkpt lat="49.16176" lon="1.79302">
        <ele>108</ele>
        <time>2011-05-18T13:43:00Z</time>
      </trkpt>
      <trkpt lat="49.16169" lon="1.7937">
        <ele>108</ele>
        <time>2011-05-18T13:43:11Z</time>
      </trkpt>
      <trkpt lat="49.16156" lon="1.79443">
        <ele>108</ele>
        <time>2011-05-18T13:43:22Z</time>
      </trkpt>
      <trkpt lat="49.16152" lon="1.79524">
        <ele>109</ele>
        <time>2011-05-18T13:43:34Z</time>
      </trkpt>
      <trkpt lat="49.16164" lon="1.79604">
        <ele>112</ele>
        <time>2011-05-18T13:43:50Z</time>
      </trkpt>
      <trkpt lat="49.16181" lon="1.79677">
        <ele>117</ele>
        <time>2011-05-18T13:44:03Z</time>
      </trkpt>
      <trkpt lat="49.16192" lon="1.79752">
        <ele>120</ele>
        <time>2011-05-18T13:44:17Z</time>
      </trkpt>
      <trkpt lat="49.1619" lon="1.79825">
        <ele>119</ele>
        <time>2011-05-18T13:44:31Z</time>
      </trkpt>
      <trkpt lat="49.1617" lon="1.79892">
        <ele>114</ele>
        <time>2011-05-18T13:44:39Z</time>
      </trkpt>
      <trkpt lat="49.16143" lon="1.79953">
        <ele>109</ele>
        <time>2011-05-18T13:44:46Z</time>
      </trkpt>
      <trkpt lat="49.16123" lon="1.80018">
        <ele>106</ele>
        <time>2011-05-18T13:44:53Z</time>
      </trkpt>
      <trkpt lat="49.16114" lon="1.80084">
        <ele>104</ele>
        <time>2011-05-18T13:45:05Z</time>
      </trkpt>
      <trkpt lat="49.16126" lon="1.80154">
        <ele>106</ele>
        <time>2011-05-18T13:45:16Z</time>
      </trkpt>
      <trkpt lat="49.1615" lon="1.80218">
        <ele>108</ele>
        <time>2011-05-18T13:45:26Z</time>
      </trkpt>
      <trkpt lat="49.16165" lon="1.80284">
        <ele>108</ele>
        <time>2011-05-18T13:45:36Z</time>
      </trkpt>
      <trkpt lat="49.16179" lon="1.8035">
        <ele>108</ele>
        <time>2011-05-18T13:45:52Z</time>
      </trkpt>
      <trkpt lat="49.16207" lon="1.80407">
        <ele>107</ele>
        <time>2011-05-18T13:46:15Z</time>
      </trkpt>
      <trkpt lat="49.16242" lon="1.80454">
        <ele>104</ele>
        <time>2011-05-18T13:46:23Z</time>
      </trkpt>
      <trkpt lat="49.16288" lon="1.80473">
        <ele>104</ele>
        <time>2011-05-18T13:46:32Z</time>
      </trkpt>
      <trkpt lat="49.16331" lon="1.80499">
        <ele>103</ele>
        <time>2011-05-18T13:46:48Z</time>
      </trkpt>
      <trkpt lat="49.16372" lon="1.80538">
        <ele>102</ele>
        <time>2011-05-18T13:47:00Z</time>
      </trkpt>
      <trkpt lat="49.16408" lon="1.80583">
        <ele>101</ele>
        <time>2011-05-18T13:47:10Z</time>
      </trkpt>
      <trkpt lat="49.1644" lon="1.80634">
        <ele>100</ele>
        <time>2011-05-18T13:47:26Z</time>
      </trkpt>
      <trkpt lat="49.16475" lon="1.80679">
        <ele>99</ele>
        <time>2011-05-18T13:47:38Z</time>
      </trkpt>
      <trkpt lat="49.16508" lon="1.80725">
        <ele>96</ele>
        <time>2011-05-18T13:47:56Z</time>
      </trkpt>
      <trkpt lat="49.16538" lon="1.80767">
        <ele>94</ele>
        <time>2011-05-18T13:59:45Z</time>
      </trkpt>
      <trkpt lat="49.16582" lon="1.80809">
        <ele>98</ele>
        <time>2011-05-18T14:00:01Z</time>
      </trkpt>
      <trkpt lat="49.16571" lon="1.8083">
        <ele>99</ele>
        <time>2011-05-18T14:00:18Z</time>
      </trkpt>
      <trkpt lat="49.16519" lon="1.80839">
        <ele>99</ele>
        <time>2011-05-18T14:00:27Z</time>
      </trkpt>
      <trkpt lat="49.16471" lon="1.80841">
        <ele>98</ele>
        <time>2011-05-18T14:00:36Z</time>
      </trkpt>
      <trkpt lat="49.16427" lon="1.80823">
        <ele>96</ele>
        <time>2011-05-18T14:00:44Z</time>
      </trkpt>
      <trkpt lat="49.16385" lon="1.80801">
        <ele>95</ele>
        <time>2011-05-18T14:00:53Z</time>
      </trkpt>
      <trkpt lat="49.16344" lon="1.80754">
        <ele>90</ele>
        <time>2011-05-18T14:01:00Z</time>
      </trkpt>
      <trkpt lat="49.16309" lon="1.80775">
        <ele>93</ele>
        <time>2011-05-18T14:01:14Z</time>
      </trkpt>
      <trkpt lat="49.16274" lon="1.80824">
        <ele>98</ele>
        <time>2011-05-18T14:01:35Z</time>
      </trkpt>
      <trkpt lat="49.16262" lon="1.8089">
        <ele>103</ele>
        <time>2011-05-18T14:02:00Z</time>
      </trkpt>
      <trkpt lat="49.16255" lon="1.8096">
        <ele>104</ele>
        <time>2011-05-18T14:02:25Z</time>
      </trkpt>
      <trkpt lat="49.16248" lon="1.81031">
        <ele>102</ele>
        <time>2011-05-18T14:02:37Z</time>
      </trkpt>
      <trkpt lat="49.16253" lon="1.81102">
        <ele>100</ele>
        <time>2011-05-18T14:02:48Z</time>
      </trkpt>
      <trkpt lat="49.1627" lon="1.81174">
        <ele>98</ele>
        <time>2011-05-18T14:02:57Z</time>
      </trkpt>
      <trkpt lat="49.16295" lon="1.81234">
        <ele>98</ele>
        <time>2011-05-18T14:03:05Z</time>
      </trkpt>
      <trkpt lat="49.16317" lon="1.81304">
        <ele>96</ele>
        <time>2011-05-18T14:03:13Z</time>
      </trkpt>
      <trkpt lat="49.16334" lon="1.81371">
        <ele>92</ele>
        <time>2011-05-18T14:03:19Z</time>
      </trkpt>
      <trkpt lat="49.16356" lon="1.81431">
        <ele>90</ele>
        <time>2011-05-18T14:03:25Z</time>
      </trkpt>
      <trkpt lat="49.16381" lon="1.81487">
        <ele>90</ele>
        <time>2011-05-18T14:03:32Z</time>
      </trkpt>
      <trkpt lat="49.16403" lon="1.81549">
        <ele>91</ele>
        <time>2011-05-18T14:03:42Z</time>
      </trkpt>
      <trkpt lat="49.16421" lon="1.81615">
        <ele>93</ele>
        <time>2011-05-18T14:03:53Z</time>
      </trkpt>
      <trkpt lat="49.16437" lon="1.81687">
        <ele>94</ele>
        <time>2011-05-18T14:04:05Z</time>
      </trkpt>
      <trkpt lat="49.16451" lon="1.81759">
        <ele>94</ele>
        <time>2011-05-18T14:04:13Z</time>
      </trkpt>
      <trkpt lat="49.16455" lon="1.81828">
        <ele>94</ele>
        <time>2011-05-18T14:04:21Z</time>
      </trkpt>
      <trkpt lat="49.16459" lon="1.819">
        <ele>95</ele>
        <time>2011-05-18T14:04:35Z</time>
      </trkpt>
      <trkpt lat="49.16449" lon="1.81973">
        <ele>94</ele>
        <time>2011-05-18T14:04:50Z</time>
      </trkpt>
      <trkpt lat="49.16443" lon="1.82046">
        <ele>92</ele>
        <time>2011-05-18T14:05:02Z</time>
      </trkpt>
      <trkpt lat="49.16465" lon="1.82112">
        <ele>90</ele>
        <time>2011-05-18T14:05:10Z</time>
      </trkpt>
      <trkpt lat="49.16501" lon="1.82162">
        <ele>90</ele>
        <time>2011-05-18T14:05:18Z</time>
      </trkpt>
      <trkpt lat="49.16545" lon="1.82207">
        <ele>89</ele>
        <time>2011-05-18T14:05:26Z</time>
      </trkpt>
      <trkpt lat="49.1653" lon="1.8227">
        <ele>84</ele>
        <time>2011-05-18T14:05:36Z</time>
      </trkpt>
      <trkpt lat="49.16522" lon="1.82345">
        <ele>90</ele>
        <time>2011-05-18T14:05:54Z</time>
      </trkpt>
      <trkpt lat="49.1657" lon="1.82393">
        <ele>90</ele>
        <time>2011-05-18T14:06:20Z</time>
      </trkpt>
      <trkpt lat="49.16606" lon="1.82441">
        <ele>89</ele>
        <time>2011-05-18T14:06:40Z</time>
      </trkpt>
      <trkpt lat="49.16643" lon="1.82493">
        <ele>91</ele>
        <time>2011-05-18T14:07:06Z</time>
      </trkpt>
      <trkpt lat="49.16688" lon="1.82546">
        <ele>92</ele>
        <time>2011-05-18T14:07:26Z</time>
      </trkpt>
      <trkpt lat="49.16731" lon="1.82581">
        <ele>97</ele>
        <time>2011-05-18T14:07:42Z</time>
      </trkpt>
      <trkpt lat="49.16766" lon="1.82606">
        <ele>102</ele>
        <time>2011-05-18T14:08:02Z</time>
      </trkpt>
      <trkpt lat="49.16806" lon="1.82615">
        <ele>105</ele>
        <time>2011-05-18T14:08:27Z</time>
      </trkpt>
      <trkpt lat="49.16854" lon="1.82624">
        <ele>108</ele>
        <time>2011-05-18T14:09:28Z</time>
      </trkpt>
      <trkpt lat="49.16874" lon="1.8265">
        <ele>112</ele>
        <time>2011-05-18T14:10:45Z</time>
      </trkpt>
      <trkpt lat="49.16831" lon="1.82685">
        <ele>113</ele>
        <time>2011-05-18T14:10:56Z</time>
      </trkpt>
      <trkpt lat="49.16785" lon="1.82699">
        <ele>113</ele>
        <time>2011-05-18T14:11:10Z</time>
      </trkpt>
      <trkpt lat="49.16735" lon="1.82709">
        <ele>113</ele>
        <time>2011-05-18T14:11:21Z</time>
      </trkpt>
      <trkpt lat="49.16689" lon="1.82717">
        <ele>113</ele>
        <time>2011-05-18T14:11:32Z</time>
      </trkpt>
      <trkpt lat="49.16645" lon="1.82737">
        <ele>115</ele>
        <time>2011-05-18T14:11:43Z</time>
      </trkpt>
      <trkpt lat="49.16606" lon="1.82774">
        <ele>115</ele>
        <time>2011-05-18T14:11:56Z</time>
      </trkpt>
      <trkpt lat="49.16569" lon="1.82815">
        <ele>116</ele>
        <time>2011-05-18T14:12:06Z</time>
      </trkpt>
      <trkpt lat="49.16531" lon="1.82855">
        <ele>115</ele>
        <time>2011-05-18T14:12:15Z</time>
      </trkpt>
      <trkpt lat="49.16491" lon="1.82907">
        <ele>114</ele>
        <time>2011-05-18T14:12:23Z</time>
      </trkpt>
      <trkpt lat="49.16469" lon="1.82962">
        <ele>113</ele>
        <time>2011-05-18T14:12:33Z</time>
      </trkpt>
      <trkpt lat="49.16413" lon="1.82988">
        <ele>107</ele>
        <time>2011-05-18T14:12:42Z</time>
      </trkpt>
      <trkpt lat="49.16399" lon="1.83064">
        <ele>104</ele>
        <time>2011-05-18T14:12:49Z</time>
      </trkpt>
      <trkpt lat="49.16383" lon="1.83133">
        <ele>101</ele>
        <time>2011-05-18T14:12:56Z</time>
      </trkpt>
      <trkpt lat="49.16382" lon="1.83205">
        <ele>99</ele>
        <time>2011-05-18T14:13:05Z</time>
      </trkpt>
      <trkpt lat="49.16415" lon="1.83294">
        <ele>94</ele>
        <time>2011-05-18T14:13:13Z</time>
      </trkpt>
      <trkpt lat="49.16368" lon="1.83363">
        <ele>98</ele>
      </trkpt>
      <trkpt lat="49.16326" lon="1.8336">
        <ele>96</ele>
        <time>2011-05-18T14:13:26Z</time>
      </trkpt>
      <trkpt lat="49.16418" lon="1.83365">
        <ele>96</ele>
        <time>2011-05-18T14:13:55Z</time>
      </trkpt>
      <trkpt lat="49.1647" lon="1.83394">
        <ele>98</ele>
        <time>2011-05-18T14:14:10Z</time>
      </trkpt>
      <trkpt lat="49.16534" lon="1.83442">
        <ele>97</ele>
        <time>2011-05-18T14:14:22Z</time>
      </trkpt>
      <trkpt lat="49.1658" lon="1.83507">
        <ele>101</ele>
        <time>2011-05-18T14:14:44Z</time>
      </trkpt>
      <trkpt lat="49.16634" lon="1.83525">
        <ele>102</ele>
        <time>2011-05-18T14:15:02Z</time>
      </trkpt>
      <trkpt lat="49.16685" lon="1.83519">
        <ele>100</ele>
        <time>2011-05-18T14:16:04Z</time>
      </trkpt>
      <trkpt lat="49.1674" lon="1.83526">
        <ele>100</ele>
        <time>2011-05-18T14:16:22Z</time>
      </trkpt>
      <trkpt lat="49.16793" lon="1.83552">
        <ele>101</ele>
        <time>2011-05-18T14:16:33Z</time>
      </trkpt>
      <trkpt lat="49.16842" lon="1.83576">
        <ele>101</ele>
        <time>2011-05-18T14:16:44Z</time>
      </trkpt>
      <trkpt lat="49.16892" lon="1.83582">
        <ele>102</ele>
        <time>2011-05-18T14:16:58Z</time>
      </trkpt>
      <trkpt lat="49.1695" lon="1.83591">
        <ele>103</ele>
        <time>2011-05-18T14:17:22Z</time>
      </trkpt>
      <trkpt lat="49.17004" lon="1.83622">
        <ele>105</ele>
        <time>2011-05-18T14:17:39Z</time>
      </trkpt>
      <trkpt lat="49.17053" lon="1.83663">
        <ele>105</ele>
        <time>2011-05-18T14:17:58Z</time>
      </trkpt>
      <trkpt lat="49.171" lon="1.83704">
        <ele>104</ele>
        <time>2011-05-18T14:18:07Z</time>
      </trkpt>
      <trkpt lat="49.17146" lon="1.83741">
        <ele>106</ele>
        <time>2011-05-18T14:18:19Z</time>
      </trkpt>
      <trkpt lat="49.17196" lon="1.83766">
        <ele>105</ele>
        <time>2011-05-18T14:18:31Z</time>
      </trkpt>
      <trkpt lat="49.17245" lon="1.83769">
        <ele>103</ele>
        <time>2011-05-18T14:18:43Z</time>
      </trkpt>
      <trkpt lat="49.1729" lon="1.83789">
        <ele>103</ele>
        <time>2011-05-18T14:18:59Z</time>
      </trkpt>
      <trkpt lat="49.17332" lon="1.83829">
        <ele>104</ele>
        <time>2011-05-18T14:19:13Z</time>
      </trkpt>
      <trkpt lat="49.17357" lon="1.83889">
        <ele>105</ele>
        <time>2011-05-18T14:19:25Z</time>
      </trkpt>
      <trkpt lat="49.17381" lon="1.8395">
        <ele>106</ele>
        <time>2011-05-18T14:19:37Z</time>
      </trkpt>
      <trkpt lat="49.17408" lon="1.84009">
        <ele>106</ele>
        <time>2011-05-18T14:19:52Z</time>
      </trkpt>
      <trkpt lat="49.17436" lon="1.84067">
        <ele>107</ele>
        <time>2011-05-18T14:20:03Z</time>
      </trkpt>
      <trkpt lat="49.17459" lon="1.84127">
        <ele>108</ele>
        <time>2011-05-18T14:20:15Z</time>
      </trkpt>
      <trkpt lat="49.17452" lon="1.84182">
        <ele>109</ele>
        <time>2011-05-18T14:20:29Z</time>
      </trkpt>
      <trkpt lat="49.1741" lon="1.84216">
        <ele>110</ele>
        <time>2011-05-18T14:20:39Z</time>
      </trkpt>
      <trkpt lat="49.17366" lon="1.84238">
        <ele>110</ele>
        <time>2011-05-18T14:20:50Z</time>
      </trkpt>
      <trkpt lat="49.17322" lon="1.84259">
        <ele>111</ele>
        <time>2011-05-18T14:21:03Z</time>
      </trkpt>
      <trkpt lat="49.17278" lon="1.84279">
        <ele>113</ele>
        <time>2011-05-18T14:21:16Z</time>
      </trkpt>
      <trkpt lat="49.17235" lon="1.84305">
        <ele>116</ele>
        <time>2011-05-18T14:21:30Z</time>
      </trkpt>
      <trkpt lat="49.1719" lon="1.84327">
        <ele>118</ele>
        <time>2011-05-18T14:21:43Z</time>
      </trkpt>
      <trkpt lat="49.17146" lon="1.84341">
        <ele>120</ele>
        <time>2011-05-18T14:21:55Z</time>
      </trkpt>
      <trkpt lat="49.17099" lon="1.84347">
        <ele>121</ele>
        <time>2011-05-18T14:22:09Z</time>
      </trkpt>
      <trkpt lat="49.17053" lon="1.84368">
        <ele>122</ele>
        <time>2011-05-18T14:22:31Z</time>
      </trkpt>
      <trkpt lat="49.17004" lon="1.84399">
        <ele>121</ele>
        <time>2011-05-18T14:22:42Z</time>
      </trkpt>
      <trkpt lat="49.1696" lon="1.84431">
        <ele>118</ele>
        <time>2011-05-18T14:22:49Z</time>
      </trkpt>
      <trkpt lat="49.16905" lon="1.84443">
        <ele>113</ele>
        <time>2011-05-18T14:22:55Z</time>
      </trkpt>
      <trkpt lat="49.16867" lon="1.84493">
        <ele>109</ele>
        <time>2011-05-18T14:23:00Z</time>
      </trkpt>
      <trkpt lat="49.16832" lon="1.84558">
        <ele>108</ele>
        <time>2011-05-18T14:23:06Z</time>
      </trkpt>
      <trkpt lat="49.16796" lon="1.8461">
        <ele>109</ele>
        <time>2011-05-18T14:23:13Z</time>
      </trkpt>
      <trkpt lat="49.16752" lon="1.84636">
        <ele>110</ele>
        <time>2011-05-18T14:23:26Z</time>
      </trkpt>
      <trkpt lat="49.16704" lon="1.84647">
        <ele>112</ele>
        <time>2011-05-18T14:23:41Z</time>
      </trkpt>
      <trkpt lat="49.16652" lon="1.84655">
        <ele>112</ele>
        <time>2011-05-18T14:23:51Z</time>
      </trkpt>
      <trkpt lat="49.16602" lon="1.84679">
        <ele>112</ele>
        <time>2011-05-18T14:24:04Z</time>
      </trkpt>
      <trkpt lat="49.1656" lon="1.84727">
        <ele>110</ele>
        <time>2011-05-18T14:24:17Z</time>
      </trkpt>
      <trkpt lat="49.16528" lon="1.84779">
        <ele>106</ele>
        <time>2011-05-18T14:24:25Z</time>
      </trkpt>
      <trkpt lat="49.16507" lon="1.84744">
        <ele>103</ele>
        <time>2011-05-18T14:39:59Z</time>
      </trkpt>
      <trkpt lat="49.16486" lon="1.84647">
        <ele>101</ele>
        <time>2011-05-18T14:40:06Z</time>
      </trkpt>
      <trkpt lat="49.16467" lon="1.84585">
        <ele>98</ele>
        <time>2011-05-18T14:40:12Z</time>
      </trkpt>
      <trkpt lat="49.16439" lon="1.84526">
        <ele>95</ele>
        <time>2011-05-18T14:40:20Z</time>
      </trkpt>
      <trkpt lat="49.16409" lon="1.84468">
        <ele>96</ele>
        <time>2011-05-18T14:40:36Z</time>
      </trkpt>
      <trkpt lat="49.16375" lon="1.84438">
        <ele>99</ele>
        <time>2011-05-18T14:40:52Z</time>
      </trkpt>
      <trkpt lat="49.16348" lon="1.84398">
        <ele>103</ele>
        <time>2011-05-18T14:41:06Z</time>
      </trkpt>
      <trkpt lat="49.16312" lon="1.8437">
        <ele>104</ele>
        <time>2011-05-18T14:42:40Z</time>
      </trkpt>
      <trkpt lat="49.16258" lon="1.84361">
        <ele>108</ele>
        <time>2011-05-18T14:44:05Z</time>
      </trkpt>
      <trkpt lat="49.16229" lon="1.84406">
        <ele>112</ele>
        <time>2011-05-18T14:44:26Z</time>
      </trkpt>
      <trkpt lat="49.16223" lon="1.84427">
        <ele>113</ele>
        <time>2011-05-18T14:44:42Z</time>
      </trkpt>
      <trkpt lat="49.16197" lon="1.84485">
        <ele>114</ele>
        <time>2011-05-18T14:44:59Z</time>
      </trkpt>
      <trkpt lat="49.16164" lon="1.84532">
        <ele>115</ele>
        <time>2011-05-18T14:45:15Z</time>
      </trkpt>
      <trkpt lat="49.1613" lon="1.84582">
        <ele>116</ele>
        <time>2011-05-18T14:45:30Z</time>
      </trkpt>
      <trkpt lat="49.16098" lon="1.8463">
        <ele>117</ele>
        <time>2011-05-18T14:45:42Z</time>
      </trkpt>
      <trkpt lat="49.16065" lon="1.84682">
        <ele>118</ele>
        <time>2011-05-18T14:46:00Z</time>
      </trkpt>
      <trkpt lat="49.16033" lon="1.84731">
        <ele>118</ele>
        <time>2011-05-18T14:46:18Z</time>
      </trkpt>
      <trkpt lat="49.16" lon="1.84781">
        <ele>117</ele>
        <time>2011-05-18T14:46:31Z</time>
      </trkpt>
      <trkpt lat="49.15967" lon="1.84834">
        <ele>117</ele>
        <time>2011-05-18T14:46:46Z</time>
      </trkpt>
      <trkpt lat="49.15934" lon="1.84888">
        <ele>116</ele>
        <time>2011-05-18T14:46:57Z</time>
      </trkpt>
      <trkpt lat="49.15904" lon="1.84938">
        <ele>115</ele>
        <time>2011-05-18T14:47:08Z</time>
      </trkpt>
      <trkpt lat="49.15872" lon="1.85009">
        <ele>114</ele>
        <time>2011-05-18T14:47:17Z</time>
      </trkpt>
      <trkpt lat="49.15838" lon="1.85058">
        <ele>114</ele>
        <time>2011-05-18T14:47:27Z</time>
      </trkpt>
      <trkpt lat="49.15805" lon="1.85104">
        <ele>114</ele>
        <time>2011-05-18T14:47:42Z</time>
      </trkpt>
      <trkpt lat="49.15835" lon="1.85149">
        <ele>114</ele>
        <time>2011-05-18T14:47:58Z</time>
      </trkpt>
      <trkpt lat="49.15877" lon="1.85182">
        <ele>113</ele>
        <time>2011-05-18T14:48:08Z</time>
      </trkpt>
      <trkpt lat="49.15913" lon="1.85225">
        <ele>113</ele>
        <time>2011-05-18T14:48:18Z</time>
      </trkpt>
      <trkpt lat="49.15944" lon="1.85273">
        <ele>113</ele>
        <time>2011-05-18T14:48:31Z</time>
      </trkpt>
      <trkpt lat="49.1591" lon="1.85327">
        <ele>113</ele>
        <time>2011-05-18T14:48:46Z</time>
      </trkpt>
      <trkpt lat="49.15876" lon="1.85373">
        <ele>115</ele>
        <time>2011-05-18T14:49:00Z</time>
      </trkpt>
      <trkpt lat="49.15845" lon="1.85422">
        <ele>116</ele>
        <time>2011-05-18T14:49:19Z</time>
      </trkpt>
      <trkpt lat="49.15804" lon="1.8546">
        <ele>118</ele>
        <time>2011-05-18T14:49:32Z</time>
      </trkpt>
      <trkpt lat="49.15779" lon="1.85509">
        <ele>119</ele>
        <time>2011-05-18T14:49:46Z</time>
      </trkpt>
      <trkpt lat="49.15778" lon="1.85578">
        <ele>120</ele>
        <time>2011-05-18T14:49:58Z</time>
      </trkpt>
      <trkpt lat="49.15779" lon="1.85651">
        <ele>121</ele>
        <time>2011-05-18T14:50:09Z</time>
      </trkpt>
      <trkpt lat="49.15791" lon="1.85721">
        <ele>120</ele>
        <time>2011-05-18T14:50:19Z</time>
      </trkpt>
      <trkpt lat="49.15802" lon="1.85792">
        <ele>119</ele>
        <time>2011-05-18T14:50:30Z</time>
      </trkpt>
      <trkpt lat="49.15812" lon="1.85867">
        <ele>118</ele>
        <time>2011-05-18T14:50:38Z</time>
      </trkpt>
      <trkpt lat="49.15819" lon="1.85937">
        <ele>118</ele>
        <time>2011-05-18T14:50:45Z</time>
      </trkpt>
      <trkpt lat="49.15811" lon="1.86011">
        <ele>117</ele>
        <time>2011-05-18T14:50:54Z</time>
      </trkpt>
      <trkpt lat="49.15804" lon="1.86086">
        <ele>117</ele>
        <time>2011-05-18T14:51:03Z</time>
      </trkpt>
      <trkpt lat="49.15802" lon="1.86155">
        <ele>117</ele>
        <time>2011-05-18T14:51:12Z</time>
      </trkpt>
      <trkpt lat="49.158" lon="1.86226">
        <ele>117</ele>
        <time>2011-05-18T14:51:23Z</time>
      </trkpt>
      <trkpt lat="49.1582" lon="1.86292">
        <ele>118</ele>
        <time>2011-05-18T14:51:34Z</time>
      </trkpt>
      <trkpt lat="49.15843" lon="1.8636">
        <ele>118</ele>
        <time>2011-05-18T14:51:45Z</time>
      </trkpt>
      <trkpt lat="49.15865" lon="1.86423">
        <ele>118</ele>
        <time>2011-05-18T14:51:55Z</time>
      </trkpt>
      <trkpt lat="49.15887" lon="1.86486">
        <ele>118</ele>
        <time>2011-05-18T14:52:05Z</time>
      </trkpt>
      <trkpt lat="49.15905" lon="1.86555">
        <ele>118</ele>
        <time>2011-05-18T14:52:14Z</time>
      </trkpt>
      <trkpt lat="49.15918" lon="1.86628">
        <ele>118</ele>
        <time>2011-05-18T14:52:22Z</time>
      </trkpt>
      <trkpt lat="49.1594" lon="1.86697">
        <ele>117</ele>
        <time>2011-05-18T14:52:30Z</time>
      </trkpt>
      <trkpt lat="49.15971" lon="1.86755">
        <ele>115</ele>
        <time>2011-05-18T14:52:37Z</time>
      </trkpt>
      <trkpt lat="49.15988" lon="1.86826">
        <ele>115</ele>
        <time>2011-05-18T14:52:45Z</time>
      </trkpt>
      <trkpt lat="49.15993" lon="1.86899">
        <ele>115</ele>
        <time>2011-05-18T14:52:53Z</time>
      </trkpt>
      <trkpt lat="49.16" lon="1.86968">
        <ele>115</ele>
        <time>2011-05-18T14:53:00Z</time>
      </trkpt>
      <trkpt lat="49.16007" lon="1.87039">
        <ele>114</ele>
        <time>2011-05-18T14:53:09Z</time>
      </trkpt>
      <trkpt lat="49.16014" lon="1.87108">
        <ele>114</ele>
        <time>2011-05-18T14:53:17Z</time>
      </trkpt>
      <trkpt lat="49.16022" lon="1.8718">
        <ele>115</ele>
        <time>2011-05-18T14:53:26Z</time>
      </trkpt>
      <trkpt lat="49.16034" lon="1.87252">
        <ele>115</ele>
        <time>2011-05-18T14:53:36Z</time>
      </trkpt>
      <trkpt lat="49.16048" lon="1.87323">
        <ele>115</ele>
        <time>2011-05-18T14:53:47Z</time>
      </trkpt>
      <trkpt lat="49.16062" lon="1.87388">
        <ele>115</ele>
        <time>2011-05-18T14:53:59Z</time>
      </trkpt>
      <trkpt lat="49.16081" lon="1.87456">
        <ele>116</ele>
        <time>2011-05-18T14:54:09Z</time>
      </trkpt>
      <trkpt lat="49.161" lon="1.87522">
        <ele>116</ele>
        <time>2011-05-18T14:54:19Z</time>
      </trkpt>
      <trkpt lat="49.16119" lon="1.87587">
        <ele>117</ele>
        <time>2011-05-18T14:54:30Z</time>
      </trkpt>
      <trkpt lat="49.16135" lon="1.87656">
        <ele>118</ele>
        <time>2011-05-18T14:54:41Z</time>
      </trkpt>
      <trkpt lat="49.16148" lon="1.87728">
        <ele>118</ele>
        <time>2011-05-18T14:54:52Z</time>
      </trkpt>
      <trkpt lat="49.16155" lon="1.87799">
        <ele>119</ele>
        <time>2011-05-18T14:55:01Z</time>
      </trkpt>
      <trkpt lat="49.16159" lon="1.87869">
        <ele>119</ele>
        <time>2011-05-18T14:55:11Z</time>
      </trkpt>
      <trkpt lat="49.16157" lon="1.87941">
        <ele>120</ele>
        <time>2011-05-18T14:55:22Z</time>
      </trkpt>
      <trkpt lat="49.16153" lon="1.88014">
        <ele>120</ele>
        <time>2011-05-18T14:55:34Z</time>
      </trkpt>
      <trkpt lat="49.16148" lon="1.88087">
        <ele>120</ele>
        <time>2011-05-18T14:55:47Z</time>
      </trkpt>
      <trkpt lat="49.16144" lon="1.88164">
        <ele>120</ele>
        <time>2011-05-18T14:55:57Z</time>
      </trkpt>
      <trkpt lat="49.16142" lon="1.88239">
        <ele>120</ele>
        <time>2011-05-18T14:56:07Z</time>
      </trkpt>
      <trkpt lat="49.16155" lon="1.88302">
        <ele>120</ele>
        <time>2011-05-18T14:56:22Z</time>
      </trkpt>
      <trkpt lat="49.1617" lon="1.88368">
        <ele>119</ele>
        <time>2011-05-18T14:56:32Z</time>
      </trkpt>
      <trkpt lat="49.16187" lon="1.88441">
        <ele>119</ele>
        <time>2011-05-18T14:56:41Z</time>
      </trkpt>
      <trkpt lat="49.16205" lon="1.88512">
        <ele>119</ele>
        <time>2011-05-18T14:56:50Z</time>
      </trkpt>
      <trkpt lat="49.16221" lon="1.88579">
        <ele>118</ele>
        <time>2011-05-18T14:56:57Z</time>
      </trkpt>
      <trkpt lat="49.16237" lon="1.88648">
        <ele>118</ele>
        <time>2011-05-18T14:57:04Z</time>
      </trkpt>
      <trkpt lat="49.16251" lon="1.88716">
        <ele>118</ele>
        <time>2011-05-18T14:57:11Z</time>
      </trkpt>
      <trkpt lat="49.16259" lon="1.88792">
        <ele>117</ele>
        <time>2011-05-18T14:57:19Z</time>
      </trkpt>
      <trkpt lat="49.16266" lon="1.88866">
        <ele>117</ele>
        <time>2011-05-18T14:57:27Z</time>
      </trkpt>
      <trkpt lat="49.16276" lon="1.88938">
        <ele>117</ele>
        <time>2011-05-18T14:57:35Z</time>
      </trkpt>
      <trkpt lat="49.16292" lon="1.89009">
        <ele>116</ele>
        <time>2011-05-18T14:57:43Z</time>
      </trkpt>
      <trkpt lat="49.16314" lon="1.89074">
        <ele>116</ele>
        <time>2011-05-18T14:57:49Z</time>
      </trkpt>
      <trkpt lat="49.16336" lon="1.89147">
        <ele>115</ele>
        <time>2011-05-18T14:57:55Z</time>
      </trkpt>
      <trkpt lat="49.16349" lon="1.89218">
        <ele>115</ele>
        <time>2011-05-18T14:58:01Z</time>
      </trkpt>
      <trkpt lat="49.16357" lon="1.8929">
        <ele>114</ele>
        <time>2011-05-18T14:58:07Z</time>
      </trkpt>
      <trkpt lat="49.16362" lon="1.89361">
        <ele>112</ele>
        <time>2011-05-18T14:58:13Z</time>
      </trkpt>
      <trkpt lat="49.16369" lon="1.89431">
        <ele>111</ele>
        <time>2011-05-18T14:58:19Z</time>
      </trkpt>
      <trkpt lat="49.16376" lon="1.89498">
        <ele>110</ele>
        <time>2011-05-18T14:58:25Z</time>
      </trkpt>
      <trkpt lat="49.16385" lon="1.89571">
        <ele>110</ele>
        <time>2011-05-18T14:58:32Z</time>
      </trkpt>
      <trkpt lat="49.1639" lon="1.89645">
        <ele>109</ele>
        <time>2011-05-18T14:58:40Z</time>
      </trkpt>
      <trkpt lat="49.16393" lon="1.89722">
        <ele>109</ele>
        <time>2011-05-18T14:58:47Z</time>
      </trkpt>
      <trkpt lat="49.16396" lon="1.89802">
        <ele>109</ele>
        <time>2011-05-18T14:58:54Z</time>
      </trkpt>
      <trkpt lat="49.16398" lon="1.8988">
        <ele>108</ele>
        <time>2011-05-18T14:59:01Z</time>
      </trkpt>
      <trkpt lat="49.16398" lon="1.89955">
        <ele>108</ele>
        <time>2011-05-18T14:59:07Z</time>
      </trkpt>
      <trkpt lat="49.16398" lon="1.90037">
        <ele>107</ele>
        <time>2011-05-18T14:59:13Z</time>
      </trkpt>
      <trkpt lat="49.16402" lon="1.90108">
        <ele>107</ele>
        <time>2011-05-18T14:59:19Z</time>
      </trkpt>
      <trkpt lat="49.16408" lon="1.90183">
        <ele>106</ele>
        <time>2011-05-18T14:59:25Z</time>
      </trkpt>
      <trkpt lat="49.16416" lon="1.90261">
        <ele>105</ele>
        <time>2011-05-18T14:59:31Z</time>
      </trkpt>
      <trkpt lat="49.16426" lon="1.90329">
        <ele>105</ele>
        <time>2011-05-18T14:59:37Z</time>
      </trkpt>
      <trkpt lat="49.16425" lon="1.90403">
        <ele>104</ele>
        <time>2011-05-18T14:59:44Z</time>
      </trkpt>
      <trkpt lat="49.16424" lon="1.90473">
        <ele>104</ele>
        <time>2011-05-18T14:59:50Z</time>
      </trkpt>
      <trkpt lat="49.16435" lon="1.90547">
        <ele>103</ele>
        <time>2011-05-18T14:59:56Z</time>
      </trkpt>
      <trkpt lat="49.16441" lon="1.90629">
        <ele>102</ele>
        <time>2011-05-18T15:00:02Z</time>
      </trkpt>
      <trkpt lat="49.16434" lon="1.90708">
        <ele>101</ele>
        <time>2011-05-18T15:00:08Z</time>
      </trkpt>
      <trkpt lat="49.16417" lon="1.90775">
        <ele>100</ele>
        <time>2011-05-18T15:00:14Z</time>
      </trkpt>
      <trkpt lat="49.16397" lon="1.9084">
        <ele>100</ele>
        <time>2011-05-18T15:00:21Z</time>
      </trkpt>
      <trkpt lat="49.16376" lon="1.90908">
        <ele>100</ele>
        <time>2011-05-18T15:00:28Z</time>
      </trkpt>
      <trkpt lat="49.16358" lon="1.90979">
        <ele>100</ele>
        <time>2011-05-18T15:00:35Z</time>
      </trkpt>
      <trkpt lat="49.16344" lon="1.91053">
        <ele>100</ele>
        <time>2011-05-18T15:00:41Z</time>
      </trkpt>
      <trkpt lat="49.16334" lon="1.9112">
        <ele>101</ele>
        <time>2011-05-18T15:00:46Z</time>
      </trkpt>
      <trkpt lat="49.16321" lon="1.91197">
        <ele>100</ele>
        <time>2011-05-18T15:00:52Z</time>
      </trkpt>
      <trkpt lat="49.16303" lon="1.91268">
        <ele>100</ele>
        <time>2011-05-18T15:00:59Z</time>
      </trkpt>
      <trkpt lat="49.16288" lon="1.91333">
        <ele>100</ele>
        <time>2011-05-18T15:01:06Z</time>
      </trkpt>
      <trkpt lat="49.16276" lon="1.91407">
        <ele>100</ele>
        <time>2011-05-18T15:01:14Z</time>
      </trkpt>
      <trkpt lat="49.16269" lon="1.91479">
        <ele>100</ele>
        <time>2011-05-18T15:01:22Z</time>
      </trkpt>
      <trkpt lat="49.1626" lon="1.91545">
        <ele>100</ele>
        <time>2011-05-18T15:01:30Z</time>
      </trkpt>
      <trkpt lat="49.16238" lon="1.91614">
        <ele>99</ele>
        <time>2011-05-18T15:01:38Z</time>
      </trkpt>
      <trkpt lat="49.1621" lon="1.91675">
        <ele>98</ele>
        <time>2011-05-18T15:01:45Z</time>
      </trkpt>
      <trkpt lat="49.1618" lon="1.91739">
        <ele>98</ele>
        <time>2011-05-18T15:01:53Z</time>
      </trkpt>
      <trkpt lat="49.16156" lon="1.91803">
        <ele>97</ele>
        <time>2011-05-18T15:02:02Z</time>
      </trkpt>
      <trkpt lat="49.16149" lon="1.91869">
        <ele>96</ele>
        <time>2011-05-18T15:02:11Z</time>
      </trkpt>
      <trkpt lat="49.16162" lon="1.91932">
        <ele>95</ele>
        <time>2011-05-18T15:02:28Z</time>
      </trkpt>
      <trkpt lat="49.1619" lon="1.91978">
        <ele>95</ele>
        <time>2011-05-18T15:02:38Z</time>
      </trkpt>
      <trkpt lat="49.16235" lon="1.91973">
        <ele>96</ele>
        <time>2011-05-18T15:02:47Z</time>
      </trkpt>
      <trkpt lat="49.16282" lon="1.91972">
        <ele>97</ele>
        <time>2011-05-18T15:02:59Z</time>
      </trkpt>
      <trkpt lat="49.16326" lon="1.91975">
        <ele>98</ele>
        <time>2011-05-18T15:03:20Z</time>
      </trkpt>
      <trkpt lat="49.16365" lon="1.91945">
        <ele>97</ele>
        <time>2011-05-18T15:03:33Z</time>
      </trkpt>
      <trkpt lat="49.16412" lon="1.91941">
        <ele>98</ele>
        <time>2011-05-18T15:03:46Z</time>
      </trkpt>
      <trkpt lat="49.16444" lon="1.91994">
        <ele>100</ele>
        <time>2011-05-18T15:03:57Z</time>
      </trkpt>
      <trkpt lat="49.16467" lon="1.92055">
        <ele>101</ele>
        <time>2011-05-18T15:04:07Z</time>
      </trkpt>
      <trkpt lat="49.1651" lon="1.92089">
        <ele>102</ele>
        <time>2011-05-18T15:04:17Z</time>
      </trkpt>
      <trkpt lat="49.16552" lon="1.92098">
        <ele>103</ele>
        <time>2011-05-18T15:04:28Z</time>
      </trkpt>
      <trkpt lat="49.16602" lon="1.92103">
        <ele>104</ele>
        <time>2011-05-18T15:04:39Z</time>
      </trkpt>
      <trkpt lat="49.16631" lon="1.92159">
        <ele>105</ele>
        <time>2011-05-18T15:04:50Z</time>
      </trkpt>
      <trkpt lat="49.16658" lon="1.92212">
        <ele>106</ele>
        <time>2011-05-18T15:05:16Z</time>
      </trkpt>
      <trkpt lat="49.16689" lon="1.92264">
        <ele>107</ele>
        <time>2011-05-18T15:05:30Z</time>
      </trkpt>
      <trkpt lat="49.16722" lon="1.92313">
        <ele>107</ele>
        <time>2011-05-18T15:05:45Z</time>
      </trkpt>
      <trkpt lat="49.16713" lon="1.92369">
        <ele>107</ele>
        <time>2011-05-18T15:06:47Z</time>
      </trkpt>
      <trkpt lat="49.16682" lon="1.92425">
        <ele>107</ele>
        <time>2011-05-18T15:07:02Z</time>
      </trkpt>
      <trkpt lat="49.16652" lon="1.92477">
        <ele>108</ele>
        <time>2011-05-18T15:07:16Z</time>
      </trkpt>
      <trkpt lat="49.1669" lon="1.9249">
        <ele>107</ele>
        <time>2011-05-18T15:07:29Z</time>
      </trkpt>
      <trkpt lat="49.16737" lon="1.92487">
        <ele>107</ele>
        <time>2011-05-18T15:07:39Z</time>
      </trkpt>
      <trkpt lat="49.16785" lon="1.92474">
        <ele>107</ele>
        <time>2011-05-18T15:07:52Z</time>
      </trkpt>
      <trkpt lat="49.16825" lon="1.9249">
        <ele>107</ele>
        <time>2011-05-18T15:08:02Z</time>
      </trkpt>
      <trkpt lat="49.16835" lon="1.9256">
        <ele>107</ele>
        <time>2011-05-18T15:08:14Z</time>
      </trkpt>
      <trkpt lat="49.16843" lon="1.92635">
        <ele>105</ele>
        <time>2011-05-18T15:08:23Z</time>
      </trkpt>
      <trkpt lat="49.16843" lon="1.92709">
        <ele>103</ele>
        <time>2011-05-18T15:08:29Z</time>
      </trkpt>
      <trkpt lat="49.16846" lon="1.92779">
        <ele>101</ele>
        <time>2011-05-18T15:08:34Z</time>
      </trkpt>
      <trkpt lat="49.16851" lon="1.92861">
        <ele>99</ele>
        <time>2011-05-18T15:08:40Z</time>
      </trkpt>
      <trkpt lat="49.16857" lon="1.92942">
        <ele>96</ele>
        <time>2011-05-18T15:08:46Z</time>
      </trkpt>
      <trkpt lat="49.16866" lon="1.93017">
        <ele>92</ele>
        <time>2011-05-18T15:08:53Z</time>
      </trkpt>
      <trkpt lat="49.16871" lon="1.93088">
        <ele>88</ele>
        <time>2011-05-18T15:09:00Z</time>
      </trkpt>
      <trkpt lat="49.16875" lon="1.93163">
        <ele>84</ele>
        <time>2011-05-18T15:09:07Z</time>
      </trkpt>
      <trkpt lat="49.16861" lon="1.93237">
        <ele>82</ele>
        <time>2011-05-18T15:09:14Z</time>
      </trkpt>
      <trkpt lat="49.16832" lon="1.93291">
        <ele>82</ele>
        <time>2011-05-18T15:09:23Z</time>
      </trkpt>
      <trkpt lat="49.16807" lon="1.93346">
        <ele>83</ele>
        <time>2011-05-18T15:09:38Z</time>
      </trkpt>
      <trkpt lat="49.16796" lon="1.93417">
        <ele>81</ele>
        <time>2011-05-18T15:09:50Z</time>
      </trkpt>
      <trkpt lat="49.16794" lon="1.93489">
        <ele>80</ele>
        <time>2011-05-18T15:10:00Z</time>
      </trkpt>
      <trkpt lat="49.16784" lon="1.93562">
        <ele>81</ele>
        <time>2011-05-18T15:10:10Z</time>
      </trkpt>
      <trkpt lat="49.16792" lon="1.93637">
        <ele>75</ele>
        <time>2011-05-18T15:10:18Z</time>
      </trkpt>
      <trkpt lat="49.16823" lon="1.93697">
        <ele>71</ele>
        <time>2011-05-18T15:10:26Z</time>
      </trkpt>
      <trkpt lat="49.16842" lon="1.93765">
        <ele>65</ele>
        <time>2011-05-18T15:10:33Z</time>
      </trkpt>
      <trkpt lat="49.16875" lon="1.93834">
        <ele>63</ele>
        <time>2011-05-18T15:10:40Z</time>
      </trkpt>
      <trkpt lat="49.16855" lon="1.9384">
        <ele>63</ele>
        <time>2011-05-18T15:10:56Z</time>
      </trkpt>
      <trkpt lat="49.16822" lon="1.93795">
        <ele>64</ele>
        <time>2011-05-18T15:11:10Z</time>
      </trkpt>
      <trkpt lat="49.16788" lon="1.93748">
        <ele>66</ele>
        <time>2011-05-18T15:11:19Z</time>
      </trkpt>
      <trkpt lat="49.16749" lon="1.93702">
        <ele>66</ele>
        <time>2011-05-18T15:11:29Z</time>
      </trkpt>
      <trkpt lat="49.16712" lon="1.93657">
        <ele>66</ele>
        <time>2011-05-18T15:11:40Z</time>
      </trkpt>
      <trkpt lat="49.16677" lon="1.93608">
        <ele>68</ele>
        <time>2011-05-18T15:11:51Z</time>
      </trkpt>
      <trkpt lat="49.16628" lon="1.93605">
        <ele>66</ele>
        <time>2011-05-18T15:12:00Z</time>
      </trkpt>
      <trkpt lat="49.16582" lon="1.93585">
        <ele>66</ele>
        <time>2011-05-18T15:12:09Z</time>
      </trkpt>
      <trkpt lat="49.16539" lon="1.9356">
        <ele>67</ele>
        <time>2011-05-18T15:12:18Z</time>
      </trkpt>
      <trkpt lat="49.16493" lon="1.93544">
        <ele>67</ele>
        <time>2011-05-18T15:12:26Z</time>
      </trkpt>
      <trkpt lat="49.16446" lon="1.93527">
        <ele>67</ele>
        <time>2011-05-18T15:12:34Z</time>
      </trkpt>
      <trkpt lat="49.16401" lon="1.93521">
        <ele>68</ele>
        <time>2011-05-18T15:12:44Z</time>
      </trkpt>
      <trkpt lat="49.16354" lon="1.93524">
        <ele>67</ele>
        <time>2011-05-18T15:12:55Z</time>
      </trkpt>
      <trkpt lat="49.16308" lon="1.93533">
        <ele>68</ele>
        <time>2011-05-18T15:13:05Z</time>
      </trkpt>
      <trkpt lat="49.16264" lon="1.93546">
        <ele>68</ele>
        <time>2011-05-18T15:13:19Z</time>
      </trkpt>
      <trkpt lat="49.16277" lon="1.93618">
        <ele>64</ele>
        <time>2011-05-18T15:13:31Z</time>
      </trkpt>
      <trkpt lat="49.16298" lon="1.93676">
        <ele>63</ele>
        <time>2011-05-18T15:13:43Z</time>
      </trkpt>
      <trkpt lat="49.16348" lon="1.93673">
        <ele>63</ele>
        <time>2011-05-18T15:13:54Z</time>
      </trkpt>
      <trkpt lat="49.16397" lon="1.93665">
        <ele>63</ele>
        <time>2011-05-18T15:14:03Z</time>
      </trkpt>
      <trkpt lat="49.16443" lon="1.93646">
        <ele>63</ele>
        <time>2011-05-18T15:14:12Z</time>
      </trkpt>
    </trkseg>
  </trk>
</gpx>